<?xml version="1.0" encoding="UTF-8" standalone="no" ?>
<gpx xmlns="http://www.topografix.com/GPX/1/1" xmlns:xsi="http://www.w3.org/2001/XMLSchema-instance" xsi:schemaLocation="http://www.topografix.com/GPX/1/1 http://www.topografix.com/GPX/1/1/gpx.xsd" version="1.1" creator="VisuGPX - https://www.visugpx.com">
  <metadata>
    <name>Régusse</name>
    <desc><![CDATA[Petite randonnée ]]></desc>
  </metadata>
  <trk>
    <name><![CDATA[Régusse]]></name>
    <extensions>
      <line xmlns="http://www.topografix.com/GPX/gpx_style/0/2">
        <color>ff0000</color>
        <opacity>1</opacity>
        <width>6</width>
      </line>
    </extensions>
    <trkseg>
      <trkpt lat="43.66574" lon="6.127">
        <ele>603</ele>
        <time>2024-11-27T12:57:58Z</time>
      </trkpt>
      <trkpt lat="43.66575" lon="6.1269">
        <ele>602.8</ele>
        <time>2024-11-27T13:00:29Z</time>
      </trkpt>
      <trkpt lat="43.66576" lon="6.12683">
        <ele>602.5</ele>
      </trkpt>
      <trkpt lat="43.66578" lon="6.12676">
        <ele>602.2</ele>
        <time>2024-11-27T13:00:47Z</time>
      </trkpt>
      <trkpt lat="43.66581" lon="6.12672">
        <ele>602.1</ele>
      </trkpt>
      <trkpt lat="43.66584" lon="6.12667">
        <ele>602</ele>
        <time>2024-11-27T13:00:58Z</time>
      </trkpt>
      <trkpt lat="43.66588" lon="6.12662">
        <ele>602.1</ele>
      </trkpt>
      <trkpt lat="43.66592" lon="6.12658">
        <ele>602.2</ele>
        <time>2024-11-27T13:01:10Z</time>
      </trkpt>
      <trkpt lat="43.66597" lon="6.12654">
        <ele>602.3</ele>
      </trkpt>
      <trkpt lat="43.66602" lon="6.1265">
        <ele>602.3</ele>
        <time>2024-11-27T13:01:22Z</time>
      </trkpt>
      <trkpt lat="43.66608" lon="6.12648">
        <ele>602.3</ele>
      </trkpt>
      <trkpt lat="43.66613" lon="6.12647">
        <ele>602.3</ele>
        <time>2024-11-27T13:01:33Z</time>
      </trkpt>
      <trkpt lat="43.66619" lon="6.12645">
        <ele>602.2</ele>
      </trkpt>
      <trkpt lat="43.66624" lon="6.12644">
        <ele>602.2</ele>
        <time>2024-11-27T13:01:45Z</time>
      </trkpt>
      <trkpt lat="43.6663" lon="6.12645">
        <ele>602.2</ele>
      </trkpt>
      <trkpt lat="43.66635" lon="6.12647">
        <ele>602.3</ele>
        <time>2024-11-27T13:01:55Z</time>
      </trkpt>
      <trkpt lat="43.6664" lon="6.1265">
        <ele>602.4</ele>
      </trkpt>
      <trkpt lat="43.66644" lon="6.12652">
        <ele>602.4</ele>
        <time>2024-11-27T13:02:05Z</time>
      </trkpt>
      <trkpt lat="43.66649" lon="6.12653">
        <ele>602.3</ele>
      </trkpt>
      <trkpt lat="43.66654" lon="6.12654">
        <ele>602.2</ele>
        <time>2024-11-27T13:02:15Z</time>
      </trkpt>
      <trkpt lat="43.66658" lon="6.12649">
        <ele>602.1</ele>
      </trkpt>
      <trkpt lat="43.66663" lon="6.12643">
        <ele>602</ele>
        <time>2024-11-27T13:02:26Z</time>
      </trkpt>
      <trkpt lat="43.66667" lon="6.12638">
        <ele>602</ele>
      </trkpt>
      <trkpt lat="43.6667" lon="6.12633">
        <ele>601.7</ele>
        <time>2024-11-27T13:02:36Z</time>
      </trkpt>
      <trkpt lat="43.66674" lon="6.12629">
        <ele>601.5</ele>
      </trkpt>
      <trkpt lat="43.66678" lon="6.12625">
        <ele>601.3</ele>
        <time>2024-11-27T13:02:45Z</time>
      </trkpt>
      <trkpt lat="43.66682" lon="6.12621">
        <ele>601.2</ele>
      </trkpt>
      <trkpt lat="43.66686" lon="6.12617">
        <ele>601.1</ele>
        <time>2024-11-27T13:02:54Z</time>
      </trkpt>
      <trkpt lat="43.66692" lon="6.12609">
        <ele>600.9</ele>
        <time>2024-11-27T13:03:03Z</time>
      </trkpt>
      <trkpt lat="43.66697" lon="6.12605">
        <ele>600.7</ele>
      </trkpt>
      <trkpt lat="43.66701" lon="6.12602">
        <ele>600.4</ele>
        <time>2024-11-27T13:03:12Z</time>
      </trkpt>
      <trkpt lat="43.66705" lon="6.12597">
        <ele>600.1</ele>
      </trkpt>
      <trkpt lat="43.66709" lon="6.12592">
        <ele>599.8</ele>
        <time>2024-11-27T13:03:21Z</time>
      </trkpt>
      <trkpt lat="43.66712" lon="6.12586">
        <ele>599.5</ele>
      </trkpt>
      <trkpt lat="43.66715" lon="6.12581">
        <ele>599.2</ele>
        <time>2024-11-27T13:03:30Z</time>
      </trkpt>
      <trkpt lat="43.66717" lon="6.12574">
        <ele>598.9</ele>
      </trkpt>
      <trkpt lat="43.6672" lon="6.12568">
        <ele>598.5</ele>
        <time>2024-11-27T13:03:39Z</time>
      </trkpt>
      <trkpt lat="43.66723" lon="6.12562">
        <ele>598.2</ele>
      </trkpt>
      <trkpt lat="43.66726" lon="6.12556">
        <ele>597.9</ele>
        <time>2024-11-27T13:03:47Z</time>
      </trkpt>
      <trkpt lat="43.66728" lon="6.1255">
        <ele>597.7</ele>
      </trkpt>
      <trkpt lat="43.6673" lon="6.12544">
        <ele>597.6</ele>
        <time>2024-11-27T13:03:55Z</time>
      </trkpt>
      <trkpt lat="43.66733" lon="6.12537">
        <ele>597.3</ele>
      </trkpt>
      <trkpt lat="43.66736" lon="6.12531">
        <ele>597.1</ele>
        <time>2024-11-27T13:04:04Z</time>
      </trkpt>
      <trkpt lat="43.66739" lon="6.12524">
        <ele>596.8</ele>
      </trkpt>
      <trkpt lat="43.66741" lon="6.12517">
        <ele>596.5</ele>
        <time>2024-11-27T13:04:13Z</time>
      </trkpt>
      <trkpt lat="43.66744" lon="6.12511">
        <ele>596.3</ele>
      </trkpt>
      <trkpt lat="43.66746" lon="6.12505">
        <ele>596.2</ele>
        <time>2024-11-27T13:04:22Z</time>
      </trkpt>
      <trkpt lat="43.66749" lon="6.125">
        <ele>596</ele>
      </trkpt>
      <trkpt lat="43.66752" lon="6.12495">
        <ele>595.8</ele>
        <time>2024-11-27T13:04:30Z</time>
      </trkpt>
      <trkpt lat="43.66754" lon="6.1249">
        <ele>595.5</ele>
      </trkpt>
      <trkpt lat="43.66757" lon="6.12484">
        <ele>595.2</ele>
        <time>2024-11-27T13:04:38Z</time>
      </trkpt>
      <trkpt lat="43.6676" lon="6.12479">
        <ele>594.9</ele>
      </trkpt>
      <trkpt lat="43.66762" lon="6.12473">
        <ele>594.6</ele>
        <time>2024-11-27T13:04:46Z</time>
      </trkpt>
      <trkpt lat="43.66765" lon="6.12467">
        <ele>594.3</ele>
      </trkpt>
      <trkpt lat="43.66768" lon="6.12462">
        <ele>594</ele>
        <time>2024-11-27T13:04:55Z</time>
      </trkpt>
      <trkpt lat="43.66771" lon="6.12455">
        <ele>593.7</ele>
      </trkpt>
      <trkpt lat="43.66773" lon="6.12449">
        <ele>593.3</ele>
        <time>2024-11-27T13:05:04Z</time>
      </trkpt>
      <trkpt lat="43.66776" lon="6.12442">
        <ele>593</ele>
      </trkpt>
      <trkpt lat="43.66779" lon="6.12436">
        <ele>593</ele>
        <time>2024-11-27T13:05:13Z</time>
      </trkpt>
      <trkpt lat="43.66783" lon="6.1243">
        <ele>592.9</ele>
      </trkpt>
      <trkpt lat="43.66786" lon="6.12425">
        <ele>592.8</ele>
        <time>2024-11-27T13:05:22Z</time>
      </trkpt>
      <trkpt lat="43.66789" lon="6.12419">
        <ele>592.6</ele>
      </trkpt>
      <trkpt lat="43.66793" lon="6.12414">
        <ele>592.3</ele>
        <time>2024-11-27T13:05:31Z</time>
      </trkpt>
      <trkpt lat="43.66795" lon="6.12406">
        <ele>592</ele>
      </trkpt>
      <trkpt lat="43.66797" lon="6.12399">
        <ele>591.7</ele>
        <time>2024-11-27T13:05:40Z</time>
      </trkpt>
      <trkpt lat="43.668" lon="6.12393">
        <ele>591.4</ele>
      </trkpt>
      <trkpt lat="43.66803" lon="6.12387">
        <ele>591</ele>
        <time>2024-11-27T13:05:49Z</time>
      </trkpt>
      <trkpt lat="43.66806" lon="6.12382">
        <ele>590.7</ele>
      </trkpt>
      <trkpt lat="43.66808" lon="6.12376">
        <ele>590.6</ele>
        <time>2024-11-27T13:05:58Z</time>
      </trkpt>
      <trkpt lat="43.66811" lon="6.1237">
        <ele>590.5</ele>
      </trkpt>
      <trkpt lat="43.66815" lon="6.12363">
        <ele>590.4</ele>
        <time>2024-11-27T13:06:07Z</time>
      </trkpt>
      <trkpt lat="43.66817" lon="6.12357">
        <ele>590.3</ele>
      </trkpt>
      <trkpt lat="43.66819" lon="6.12351">
        <ele>590.1</ele>
        <time>2024-11-27T13:06:16Z</time>
      </trkpt>
      <trkpt lat="43.66822" lon="6.12345">
        <ele>589.9</ele>
      </trkpt>
      <trkpt lat="43.66825" lon="6.12338">
        <ele>589.5</ele>
        <time>2024-11-27T13:06:25Z</time>
      </trkpt>
      <trkpt lat="43.66828" lon="6.12332">
        <ele>589.2</ele>
      </trkpt>
      <trkpt lat="43.6683" lon="6.12325">
        <ele>589.1</ele>
        <time>2024-11-27T13:06:34Z</time>
      </trkpt>
      <trkpt lat="43.66834" lon="6.12319">
        <ele>589</ele>
      </trkpt>
      <trkpt lat="43.66838" lon="6.12312">
        <ele>589</ele>
        <time>2024-11-27T13:06:43Z</time>
      </trkpt>
      <trkpt lat="43.6684" lon="6.12306">
        <ele>589</ele>
      </trkpt>
      <trkpt lat="43.66843" lon="6.123">
        <ele>588.7</ele>
        <time>2024-11-27T13:06:52Z</time>
      </trkpt>
      <trkpt lat="43.66845" lon="6.12294">
        <ele>588.4</ele>
      </trkpt>
      <trkpt lat="43.66847" lon="6.12287">
        <ele>588</ele>
        <time>2024-11-27T13:07:01Z</time>
      </trkpt>
      <trkpt lat="43.6685" lon="6.1228">
        <ele>587.5</ele>
      </trkpt>
      <trkpt lat="43.66852" lon="6.12273">
        <ele>587.2</ele>
        <time>2024-11-27T13:07:10Z</time>
      </trkpt>
      <trkpt lat="43.66855" lon="6.12267">
        <ele>586.9</ele>
      </trkpt>
      <trkpt lat="43.66858" lon="6.12261">
        <ele>586.6</ele>
        <time>2024-11-27T13:07:19Z</time>
      </trkpt>
      <trkpt lat="43.66861" lon="6.12255">
        <ele>586.2</ele>
      </trkpt>
      <trkpt lat="43.66864" lon="6.12249">
        <ele>586.1</ele>
        <time>2024-11-27T13:07:28Z</time>
      </trkpt>
      <trkpt lat="43.66867" lon="6.12243">
        <ele>586.1</ele>
      </trkpt>
      <trkpt lat="43.6687" lon="6.12237">
        <ele>586</ele>
        <time>2024-11-27T13:07:37Z</time>
      </trkpt>
      <trkpt lat="43.66873" lon="6.12231">
        <ele>585.8</ele>
      </trkpt>
      <trkpt lat="43.66876" lon="6.12224">
        <ele>585.6</ele>
        <time>2024-11-27T13:07:46Z</time>
      </trkpt>
      <trkpt lat="43.66878" lon="6.12218">
        <ele>585.4</ele>
      </trkpt>
      <trkpt lat="43.66881" lon="6.12212">
        <ele>585.3</ele>
        <time>2024-11-27T13:07:55Z</time>
      </trkpt>
      <trkpt lat="43.66883" lon="6.12206">
        <ele>585.2</ele>
      </trkpt>
      <trkpt lat="43.66886" lon="6.12199">
        <ele>585.1</ele>
        <time>2024-11-27T13:08:03Z</time>
      </trkpt>
      <trkpt lat="43.66888" lon="6.12193">
        <ele>585</ele>
      </trkpt>
      <trkpt lat="43.66891" lon="6.12186">
        <ele>584.9</ele>
        <time>2024-11-27T13:08:12Z</time>
      </trkpt>
      <trkpt lat="43.66894" lon="6.1218">
        <ele>584.7</ele>
      </trkpt>
      <trkpt lat="43.66897" lon="6.12174">
        <ele>584.5</ele>
        <time>2024-11-27T13:08:23Z</time>
      </trkpt>
      <trkpt lat="43.669" lon="6.12167">
        <ele>584.2</ele>
      </trkpt>
      <trkpt lat="43.66902" lon="6.12159">
        <ele>583.9</ele>
        <time>2024-11-27T13:08:33Z</time>
      </trkpt>
      <trkpt lat="43.66905" lon="6.12153">
        <ele>583.6</ele>
      </trkpt>
      <trkpt lat="43.66909" lon="6.12146">
        <ele>583.4</ele>
        <time>2024-11-27T13:08:42Z</time>
      </trkpt>
      <trkpt lat="43.66912" lon="6.12139">
        <ele>583.2</ele>
      </trkpt>
      <trkpt lat="43.66915" lon="6.12133">
        <ele>583.1</ele>
        <time>2024-11-27T13:08:52Z</time>
      </trkpt>
      <trkpt lat="43.66918" lon="6.12127">
        <ele>582.9</ele>
      </trkpt>
      <trkpt lat="43.66922" lon="6.12121">
        <ele>582.8</ele>
        <time>2024-11-27T13:09:01Z</time>
      </trkpt>
      <trkpt lat="43.66925" lon="6.12115">
        <ele>582.7</ele>
      </trkpt>
      <trkpt lat="43.66927" lon="6.12109">
        <ele>582.6</ele>
        <time>2024-11-27T13:09:11Z</time>
      </trkpt>
      <trkpt lat="43.66931" lon="6.12101">
        <ele>582.5</ele>
      </trkpt>
      <trkpt lat="43.66934" lon="6.12093">
        <ele>582.4</ele>
        <time>2024-11-27T13:09:22Z</time>
      </trkpt>
      <trkpt lat="43.66938" lon="6.12088">
        <ele>582.2</ele>
      </trkpt>
      <trkpt lat="43.66942" lon="6.12083">
        <ele>582.1</ele>
        <time>2024-11-27T13:09:31Z</time>
      </trkpt>
      <trkpt lat="43.66946" lon="6.12077">
        <ele>581.7</ele>
      </trkpt>
      <trkpt lat="43.66951" lon="6.12072">
        <ele>581.2</ele>
        <time>2024-11-27T13:09:41Z</time>
      </trkpt>
      <trkpt lat="43.66956" lon="6.12065">
        <ele>580.8</ele>
      </trkpt>
      <trkpt lat="43.6696" lon="6.12059">
        <ele>580.5</ele>
        <time>2024-11-27T13:09:51Z</time>
      </trkpt>
      <trkpt lat="43.66964" lon="6.12054">
        <ele>580.3</ele>
      </trkpt>
      <trkpt lat="43.66968" lon="6.12048">
        <ele>580.2</ele>
        <time>2024-11-27T13:10:00Z</time>
      </trkpt>
      <trkpt lat="43.66972" lon="6.12043">
        <ele>580</ele>
      </trkpt>
      <trkpt lat="43.66975" lon="6.12038">
        <ele>579.9</ele>
        <time>2024-11-27T13:10:10Z</time>
      </trkpt>
      <trkpt lat="43.66979" lon="6.12034">
        <ele>579.7</ele>
      </trkpt>
      <trkpt lat="43.66984" lon="6.1203">
        <ele>579.6</ele>
        <time>2024-11-27T13:10:18Z</time>
      </trkpt>
      <trkpt lat="43.66988" lon="6.12029">
        <ele>579.4</ele>
      </trkpt>
      <trkpt lat="43.66993" lon="6.12029">
        <ele>579.3</ele>
        <time>2024-11-27T13:10:27Z</time>
      </trkpt>
      <trkpt lat="43.67001" lon="6.12028">
        <ele>579</ele>
        <time>2024-11-27T13:10:36Z</time>
      </trkpt>
      <trkpt lat="43.67007" lon="6.12029">
        <ele>578.8</ele>
      </trkpt>
      <trkpt lat="43.67012" lon="6.12029">
        <ele>578.6</ele>
        <time>2024-11-27T13:10:47Z</time>
      </trkpt>
      <trkpt lat="43.67019" lon="6.12029">
        <ele>578.3</ele>
      </trkpt>
      <trkpt lat="43.67026" lon="6.12028">
        <ele>578.1</ele>
        <time>2024-11-27T13:10:57Z</time>
      </trkpt>
      <trkpt lat="43.67032" lon="6.12024">
        <ele>578</ele>
      </trkpt>
      <trkpt lat="43.67038" lon="6.12021">
        <ele>577.8</ele>
        <time>2024-11-27T13:11:10Z</time>
      </trkpt>
      <trkpt lat="43.67043" lon="6.12013">
        <ele>577.7</ele>
      </trkpt>
      <trkpt lat="43.67049" lon="6.12006">
        <ele>577.4</ele>
        <time>2024-11-27T13:11:22Z</time>
      </trkpt>
      <trkpt lat="43.67054" lon="6.12002">
        <ele>577.1</ele>
      </trkpt>
      <trkpt lat="43.6706" lon="6.11997">
        <ele>576.8</ele>
        <time>2024-11-27T13:11:33Z</time>
      </trkpt>
      <trkpt lat="43.67067" lon="6.11993">
        <ele>576.5</ele>
      </trkpt>
      <trkpt lat="43.67073" lon="6.11989">
        <ele>576.1</ele>
        <time>2024-11-27T13:11:46Z</time>
      </trkpt>
      <trkpt lat="43.67078" lon="6.11982">
        <ele>576</ele>
      </trkpt>
      <trkpt lat="43.67083" lon="6.11976">
        <ele>575.9</ele>
        <time>2024-11-27T13:11:58Z</time>
      </trkpt>
      <trkpt lat="43.67087" lon="6.1197">
        <ele>575.7</ele>
      </trkpt>
      <trkpt lat="43.67092" lon="6.11965">
        <ele>575.6</ele>
        <time>2024-11-27T13:12:08Z</time>
      </trkpt>
      <trkpt lat="43.67096" lon="6.1196">
        <ele>575.5</ele>
      </trkpt>
      <trkpt lat="43.671" lon="6.11955">
        <ele>575.5</ele>
        <time>2024-11-27T13:12:18Z</time>
      </trkpt>
      <trkpt lat="43.67103" lon="6.1195">
        <ele>575.5</ele>
      </trkpt>
      <trkpt lat="43.67107" lon="6.11944">
        <ele>575.5</ele>
        <time>2024-11-27T13:12:27Z</time>
      </trkpt>
      <trkpt lat="43.67112" lon="6.1194">
        <ele>575.3</ele>
      </trkpt>
      <trkpt lat="43.67117" lon="6.11935">
        <ele>575.2</ele>
        <time>2024-11-27T13:12:36Z</time>
      </trkpt>
      <trkpt lat="43.67122" lon="6.11934">
        <ele>575</ele>
      </trkpt>
      <trkpt lat="43.67127" lon="6.11932">
        <ele>574.7</ele>
        <time>2024-11-27T13:13:33Z</time>
      </trkpt>
      <trkpt lat="43.67128" lon="6.11924">
        <ele>575.2</ele>
        <time>2024-11-27T13:15:12Z</time>
      </trkpt>
      <trkpt lat="43.67132" lon="6.11913">
        <ele>575.6</ele>
        <time>2024-11-27T13:15:22Z</time>
      </trkpt>
      <trkpt lat="43.67138" lon="6.11904">
        <ele>575.5</ele>
        <time>2024-11-27T13:15:31Z</time>
      </trkpt>
      <trkpt lat="43.67142" lon="6.119">
        <ele>575.5</ele>
      </trkpt>
      <trkpt lat="43.67146" lon="6.11896">
        <ele>575.5</ele>
        <time>2024-11-27T13:15:40Z</time>
      </trkpt>
      <trkpt lat="43.67151" lon="6.11893">
        <ele>575.4</ele>
      </trkpt>
      <trkpt lat="43.67155" lon="6.11889">
        <ele>575.4</ele>
        <time>2024-11-27T13:15:49Z</time>
      </trkpt>
      <trkpt lat="43.6716" lon="6.11886">
        <ele>575.3</ele>
      </trkpt>
      <trkpt lat="43.67165" lon="6.11883">
        <ele>575.1</ele>
        <time>2024-11-27T13:15:58Z</time>
      </trkpt>
      <trkpt lat="43.6717" lon="6.11879">
        <ele>574.8</ele>
      </trkpt>
      <trkpt lat="43.67174" lon="6.11875">
        <ele>574.4</ele>
        <time>2024-11-27T13:16:07Z</time>
      </trkpt>
      <trkpt lat="43.67179" lon="6.11872">
        <ele>574.1</ele>
      </trkpt>
      <trkpt lat="43.67184" lon="6.11868">
        <ele>573.8</ele>
        <time>2024-11-27T13:16:16Z</time>
      </trkpt>
      <trkpt lat="43.67188" lon="6.11864">
        <ele>573.4</ele>
      </trkpt>
      <trkpt lat="43.67193" lon="6.11859">
        <ele>573.2</ele>
        <time>2024-11-27T13:16:25Z</time>
      </trkpt>
      <trkpt lat="43.67197" lon="6.11854">
        <ele>573.1</ele>
      </trkpt>
      <trkpt lat="43.67201" lon="6.11849">
        <ele>573.1</ele>
        <time>2024-11-27T13:16:34Z</time>
      </trkpt>
      <trkpt lat="43.67205" lon="6.11844">
        <ele>573</ele>
      </trkpt>
      <trkpt lat="43.67208" lon="6.11839">
        <ele>572.9</ele>
        <time>2024-11-27T13:16:44Z</time>
      </trkpt>
      <trkpt lat="43.67212" lon="6.11834">
        <ele>572.7</ele>
      </trkpt>
      <trkpt lat="43.67216" lon="6.11828">
        <ele>572.6</ele>
        <time>2024-11-27T13:16:54Z</time>
      </trkpt>
      <trkpt lat="43.6722" lon="6.11822">
        <ele>572.5</ele>
      </trkpt>
      <trkpt lat="43.67224" lon="6.11816">
        <ele>572.5</ele>
        <time>2024-11-27T13:17:03Z</time>
      </trkpt>
      <trkpt lat="43.67229" lon="6.11812">
        <ele>572.3</ele>
      </trkpt>
      <trkpt lat="43.67233" lon="6.11808">
        <ele>572.1</ele>
        <time>2024-11-27T13:17:13Z</time>
      </trkpt>
      <trkpt lat="43.67238" lon="6.11803">
        <ele>571.9</ele>
      </trkpt>
      <trkpt lat="43.67243" lon="6.11798">
        <ele>571.5</ele>
        <time>2024-11-27T13:17:22Z</time>
      </trkpt>
      <trkpt lat="43.67248" lon="6.11794">
        <ele>571.1</ele>
      </trkpt>
      <trkpt lat="43.67254" lon="6.1179">
        <ele>570.7</ele>
        <time>2024-11-27T13:17:31Z</time>
      </trkpt>
      <trkpt lat="43.67259" lon="6.11787">
        <ele>570.4</ele>
      </trkpt>
      <trkpt lat="43.67264" lon="6.11783">
        <ele>570</ele>
        <time>2024-11-27T13:17:40Z</time>
      </trkpt>
      <trkpt lat="43.67269" lon="6.11779">
        <ele>569.6</ele>
      </trkpt>
      <trkpt lat="43.67274" lon="6.11775">
        <ele>569.4</ele>
        <time>2024-11-27T13:17:49Z</time>
      </trkpt>
      <trkpt lat="43.67279" lon="6.11772">
        <ele>569.1</ele>
      </trkpt>
      <trkpt lat="43.67285" lon="6.11768">
        <ele>568.9</ele>
        <time>2024-11-27T13:17:58Z</time>
      </trkpt>
      <trkpt lat="43.67289" lon="6.11764">
        <ele>568.9</ele>
      </trkpt>
      <trkpt lat="43.67294" lon="6.11759">
        <ele>568.9</ele>
        <time>2024-11-27T13:18:07Z</time>
      </trkpt>
      <trkpt lat="43.67299" lon="6.11756">
        <ele>568.8</ele>
      </trkpt>
      <trkpt lat="43.67304" lon="6.11753">
        <ele>568.8</ele>
        <time>2024-11-27T13:18:18Z</time>
      </trkpt>
      <trkpt lat="43.67312" lon="6.11751">
        <ele>568.5</ele>
      </trkpt>
      <trkpt lat="43.67319" lon="6.11748">
        <ele>568.1</ele>
        <time>2024-11-27T13:18:29Z</time>
      </trkpt>
      <trkpt lat="43.67324" lon="6.11747">
        <ele>567.8</ele>
      </trkpt>
      <trkpt lat="43.67329" lon="6.11745">
        <ele>567.5</ele>
        <time>2024-11-27T13:18:38Z</time>
      </trkpt>
      <trkpt lat="43.67334" lon="6.11742">
        <ele>567.3</ele>
      </trkpt>
      <trkpt lat="43.67339" lon="6.1174">
        <ele>567</ele>
        <time>2024-11-27T13:18:47Z</time>
      </trkpt>
      <trkpt lat="43.67344" lon="6.11736">
        <ele>566.8</ele>
      </trkpt>
      <trkpt lat="43.67349" lon="6.11732">
        <ele>566.5</ele>
        <time>2024-11-27T13:18:56Z</time>
      </trkpt>
      <trkpt lat="43.67354" lon="6.11727">
        <ele>566.3</ele>
      </trkpt>
      <trkpt lat="43.67359" lon="6.11722">
        <ele>566.2</ele>
        <time>2024-11-27T13:19:05Z</time>
      </trkpt>
      <trkpt lat="43.67363" lon="6.11718">
        <ele>566.2</ele>
      </trkpt>
      <trkpt lat="43.67367" lon="6.11714">
        <ele>566.3</ele>
        <time>2024-11-27T13:19:15Z</time>
      </trkpt>
      <trkpt lat="43.67372" lon="6.1171">
        <ele>566.3</ele>
      </trkpt>
      <trkpt lat="43.67377" lon="6.11707">
        <ele>566.2</ele>
        <time>2024-11-27T13:19:25Z</time>
      </trkpt>
      <trkpt lat="43.67381" lon="6.11703">
        <ele>566.2</ele>
      </trkpt>
      <trkpt lat="43.67385" lon="6.117">
        <ele>566.1</ele>
        <time>2024-11-27T13:19:34Z</time>
      </trkpt>
      <trkpt lat="43.6739" lon="6.11695">
        <ele>566</ele>
      </trkpt>
      <trkpt lat="43.67394" lon="6.11691">
        <ele>566</ele>
        <time>2024-11-27T13:19:43Z</time>
      </trkpt>
      <trkpt lat="43.67398" lon="6.11686">
        <ele>566</ele>
      </trkpt>
      <trkpt lat="43.67402" lon="6.11682">
        <ele>566</ele>
        <time>2024-11-27T13:19:51Z</time>
      </trkpt>
      <trkpt lat="43.67406" lon="6.11678">
        <ele>566</ele>
      </trkpt>
      <trkpt lat="43.67411" lon="6.11674">
        <ele>566</ele>
        <time>2024-11-27T13:20:00Z</time>
      </trkpt>
      <trkpt lat="43.67416" lon="6.1167">
        <ele>565.9</ele>
      </trkpt>
      <trkpt lat="43.67422" lon="6.11666">
        <ele>565.8</ele>
        <time>2024-11-27T13:20:08Z</time>
      </trkpt>
      <trkpt lat="43.67426" lon="6.11663">
        <ele>565.7</ele>
      </trkpt>
      <trkpt lat="43.6743" lon="6.1166">
        <ele>565.6</ele>
        <time>2024-11-27T13:20:17Z</time>
      </trkpt>
      <trkpt lat="43.67435" lon="6.11658">
        <ele>565.6</ele>
      </trkpt>
      <trkpt lat="43.67439" lon="6.11656">
        <ele>565.5</ele>
        <time>2024-11-27T13:20:26Z</time>
      </trkpt>
      <trkpt lat="43.67445" lon="6.11653">
        <ele>565.5</ele>
      </trkpt>
      <trkpt lat="43.67451" lon="6.1165">
        <ele>565.4</ele>
        <time>2024-11-27T13:20:35Z</time>
      </trkpt>
      <trkpt lat="43.67456" lon="6.11648">
        <ele>565.2</ele>
      </trkpt>
      <trkpt lat="43.67461" lon="6.11647">
        <ele>565.1</ele>
        <time>2024-11-27T13:20:44Z</time>
      </trkpt>
      <trkpt lat="43.67466" lon="6.11645">
        <ele>565</ele>
      </trkpt>
      <trkpt lat="43.6747" lon="6.11643">
        <ele>564.9</ele>
        <time>2024-11-27T13:20:52Z</time>
      </trkpt>
      <trkpt lat="43.67475" lon="6.11642">
        <ele>564.8</ele>
      </trkpt>
      <trkpt lat="43.6748" lon="6.11641">
        <ele>564.7</ele>
        <time>2024-11-27T13:21:00Z</time>
      </trkpt>
      <trkpt lat="43.67485" lon="6.11644">
        <ele>564.4</ele>
      </trkpt>
      <trkpt lat="43.6749" lon="6.11647">
        <ele>564.1</ele>
        <time>2024-11-27T13:21:09Z</time>
      </trkpt>
      <trkpt lat="43.67494" lon="6.11651">
        <ele>563.8</ele>
      </trkpt>
      <trkpt lat="43.67499" lon="6.11655">
        <ele>563.5</ele>
        <time>2024-11-27T13:21:18Z</time>
      </trkpt>
      <trkpt lat="43.67504" lon="6.11659">
        <ele>563.3</ele>
      </trkpt>
      <trkpt lat="43.6751" lon="6.11663">
        <ele>563.1</ele>
        <time>2024-11-27T13:21:32Z</time>
      </trkpt>
      <trkpt lat="43.67514" lon="6.11668">
        <ele>563</ele>
      </trkpt>
      <trkpt lat="43.67519" lon="6.11674">
        <ele>562.9</ele>
        <time>2024-11-27T13:21:43Z</time>
      </trkpt>
      <trkpt lat="43.67524" lon="6.11678">
        <ele>562.9</ele>
      </trkpt>
      <trkpt lat="43.67528" lon="6.11683">
        <ele>563</ele>
        <time>2024-11-27T13:21:55Z</time>
      </trkpt>
      <trkpt lat="43.67534" lon="6.11682">
        <ele>563.2</ele>
      </trkpt>
      <trkpt lat="43.67539" lon="6.1168">
        <ele>563.4</ele>
        <time>2024-11-27T13:22:07Z</time>
      </trkpt>
      <trkpt lat="43.67544" lon="6.11675">
        <ele>563.6</ele>
      </trkpt>
      <trkpt lat="43.67548" lon="6.1167">
        <ele>563.7</ele>
        <time>2024-11-27T13:22:16Z</time>
      </trkpt>
      <trkpt lat="43.67553" lon="6.11668">
        <ele>563.9</ele>
      </trkpt>
      <trkpt lat="43.67558" lon="6.11667">
        <ele>564</ele>
        <time>2024-11-27T13:22:29Z</time>
      </trkpt>
      <trkpt lat="43.67564" lon="6.11667">
        <ele>564</ele>
      </trkpt>
      <trkpt lat="43.6757" lon="6.11668">
        <ele>564</ele>
        <time>2024-11-27T13:22:41Z</time>
      </trkpt>
      <trkpt lat="43.67577" lon="6.11665">
        <ele>564</ele>
      </trkpt>
      <trkpt lat="43.67583" lon="6.11662">
        <ele>564</ele>
        <time>2024-11-27T13:22:51Z</time>
      </trkpt>
      <trkpt lat="43.67588" lon="6.11657">
        <ele>564.2</ele>
      </trkpt>
      <trkpt lat="43.67593" lon="6.11653">
        <ele>564.4</ele>
        <time>2024-11-27T13:23:01Z</time>
      </trkpt>
      <trkpt lat="43.67598" lon="6.11649">
        <ele>564.5</ele>
      </trkpt>
      <trkpt lat="43.67603" lon="6.11646">
        <ele>564.7</ele>
        <time>2024-11-27T13:23:11Z</time>
      </trkpt>
      <trkpt lat="43.67608" lon="6.11642">
        <ele>564.9</ele>
      </trkpt>
      <trkpt lat="43.67613" lon="6.11639">
        <ele>565.1</ele>
        <time>2024-11-27T13:23:21Z</time>
      </trkpt>
      <trkpt lat="43.67618" lon="6.11635">
        <ele>565.2</ele>
      </trkpt>
      <trkpt lat="43.67622" lon="6.1163">
        <ele>565.3</ele>
        <time>2024-11-27T13:23:33Z</time>
      </trkpt>
      <trkpt lat="43.67626" lon="6.11625">
        <ele>565.3</ele>
      </trkpt>
      <trkpt lat="43.67631" lon="6.11619">
        <ele>565.2</ele>
        <time>2024-11-27T13:23:44Z</time>
      </trkpt>
      <trkpt lat="43.67635" lon="6.11611">
        <ele>565</ele>
      </trkpt>
      <trkpt lat="43.67639" lon="6.11603">
        <ele>565</ele>
        <time>2024-11-27T13:23:57Z</time>
      </trkpt>
      <trkpt lat="43.67642" lon="6.11596">
        <ele>565.1</ele>
      </trkpt>
      <trkpt lat="43.67646" lon="6.11589">
        <ele>565.2</ele>
        <time>2024-11-27T13:24:06Z</time>
      </trkpt>
      <trkpt lat="43.67649" lon="6.11583">
        <ele>565.4</ele>
      </trkpt>
      <trkpt lat="43.67653" lon="6.11577">
        <ele>565.4</ele>
        <time>2024-11-27T13:24:15Z</time>
      </trkpt>
      <trkpt lat="43.67657" lon="6.11573">
        <ele>565.4</ele>
      </trkpt>
      <trkpt lat="43.67662" lon="6.1157">
        <ele>565.4</ele>
        <time>2024-11-27T13:24:24Z</time>
      </trkpt>
      <trkpt lat="43.67667" lon="6.11566">
        <ele>565.4</ele>
      </trkpt>
      <trkpt lat="43.67672" lon="6.11562">
        <ele>565.2</ele>
        <time>2024-11-27T13:24:33Z</time>
      </trkpt>
      <trkpt lat="43.67676" lon="6.1156">
        <ele>565.2</ele>
      </trkpt>
      <trkpt lat="43.67681" lon="6.11557">
        <ele>565.1</ele>
        <time>2024-11-27T13:24:41Z</time>
      </trkpt>
      <trkpt lat="43.67685" lon="6.11554">
        <ele>565</ele>
      </trkpt>
      <trkpt lat="43.67689" lon="6.11551">
        <ele>565</ele>
        <time>2024-11-27T13:24:49Z</time>
      </trkpt>
      <trkpt lat="43.67692" lon="6.11546">
        <ele>565</ele>
      </trkpt>
      <trkpt lat="43.67696" lon="6.11542">
        <ele>565.1</ele>
        <time>2024-11-27T13:24:58Z</time>
      </trkpt>
      <trkpt lat="43.677" lon="6.11537">
        <ele>565.2</ele>
      </trkpt>
      <trkpt lat="43.67705" lon="6.11533">
        <ele>565.4</ele>
        <time>2024-11-27T13:25:09Z</time>
      </trkpt>
      <trkpt lat="43.67708" lon="6.11527">
        <ele>565.5</ele>
      </trkpt>
      <trkpt lat="43.67712" lon="6.11522">
        <ele>565.4</ele>
        <time>2024-11-27T13:25:19Z</time>
      </trkpt>
      <trkpt lat="43.67715" lon="6.11517">
        <ele>565.3</ele>
      </trkpt>
      <trkpt lat="43.67718" lon="6.11512">
        <ele>565.3</ele>
        <time>2024-11-27T13:25:29Z</time>
      </trkpt>
      <trkpt lat="43.67722" lon="6.11507">
        <ele>565.2</ele>
      </trkpt>
      <trkpt lat="43.67727" lon="6.11502">
        <ele>565.1</ele>
        <time>2024-11-27T13:25:40Z</time>
      </trkpt>
      <trkpt lat="43.67731" lon="6.11498">
        <ele>564.9</ele>
      </trkpt>
      <trkpt lat="43.67736" lon="6.11494">
        <ele>564.9</ele>
        <time>2024-11-27T13:25:50Z</time>
      </trkpt>
      <trkpt lat="43.6774" lon="6.11489">
        <ele>564.9</ele>
      </trkpt>
      <trkpt lat="43.67744" lon="6.11484">
        <ele>564.9</ele>
        <time>2024-11-27T13:26:00Z</time>
      </trkpt>
      <trkpt lat="43.6775" lon="6.11482">
        <ele>565</ele>
      </trkpt>
      <trkpt lat="43.67755" lon="6.1148">
        <ele>565</ele>
        <time>2024-11-27T13:26:11Z</time>
      </trkpt>
      <trkpt lat="43.6776" lon="6.11478">
        <ele>565</ele>
      </trkpt>
      <trkpt lat="43.67765" lon="6.11476">
        <ele>565</ele>
        <time>2024-11-27T13:26:20Z</time>
      </trkpt>
      <trkpt lat="43.6777" lon="6.11473">
        <ele>565</ele>
      </trkpt>
      <trkpt lat="43.67775" lon="6.1147">
        <ele>564.9</ele>
        <time>2024-11-27T13:26:29Z</time>
      </trkpt>
      <trkpt lat="43.67781" lon="6.1147">
        <ele>564.9</ele>
      </trkpt>
      <trkpt lat="43.67786" lon="6.11469">
        <ele>564.9</ele>
        <time>2024-11-27T13:26:40Z</time>
      </trkpt>
      <trkpt lat="43.67792" lon="6.11469">
        <ele>564.9</ele>
      </trkpt>
      <trkpt lat="43.67798" lon="6.11469">
        <ele>565</ele>
        <time>2024-11-27T13:26:50Z</time>
      </trkpt>
      <trkpt lat="43.67803" lon="6.11467">
        <ele>565</ele>
      </trkpt>
      <trkpt lat="43.67807" lon="6.11466">
        <ele>565</ele>
        <time>2024-11-27T13:27:00Z</time>
      </trkpt>
      <trkpt lat="43.67812" lon="6.11464">
        <ele>565</ele>
      </trkpt>
      <trkpt lat="43.67816" lon="6.11462">
        <ele>565</ele>
        <time>2024-11-27T13:27:11Z</time>
      </trkpt>
      <trkpt lat="43.67822" lon="6.11461">
        <ele>565</ele>
      </trkpt>
      <trkpt lat="43.67828" lon="6.11461">
        <ele>565</ele>
        <time>2024-11-27T13:27:21Z</time>
      </trkpt>
      <trkpt lat="43.67833" lon="6.11458">
        <ele>565</ele>
      </trkpt>
      <trkpt lat="43.67838" lon="6.11456">
        <ele>564.8</ele>
        <time>2024-11-27T13:27:31Z</time>
      </trkpt>
      <trkpt lat="43.67843" lon="6.11454">
        <ele>564.7</ele>
      </trkpt>
      <trkpt lat="43.67848" lon="6.11453">
        <ele>564.5</ele>
        <time>2024-11-27T13:27:41Z</time>
      </trkpt>
      <trkpt lat="43.67853" lon="6.11453">
        <ele>564.3</ele>
      </trkpt>
      <trkpt lat="43.67859" lon="6.11452">
        <ele>564.1</ele>
        <time>2024-11-27T13:27:51Z</time>
      </trkpt>
      <trkpt lat="43.67865" lon="6.11451">
        <ele>564</ele>
      </trkpt>
      <trkpt lat="43.67871" lon="6.1145">
        <ele>564</ele>
        <time>2024-11-27T13:28:01Z</time>
      </trkpt>
      <trkpt lat="43.67876" lon="6.11448">
        <ele>564</ele>
      </trkpt>
      <trkpt lat="43.67881" lon="6.11447">
        <ele>564</ele>
        <time>2024-11-27T13:28:15Z</time>
      </trkpt>
      <trkpt lat="43.67887" lon="6.11447">
        <ele>564</ele>
      </trkpt>
      <trkpt lat="43.67894" lon="6.11448">
        <ele>564</ele>
        <time>2024-11-27T13:28:25Z</time>
      </trkpt>
      <trkpt lat="43.67898" lon="6.11444">
        <ele>564</ele>
      </trkpt>
      <trkpt lat="43.67902" lon="6.1144">
        <ele>564</ele>
        <time>2024-11-27T13:28:33Z</time>
      </trkpt>
      <trkpt lat="43.67906" lon="6.11436">
        <ele>564</ele>
      </trkpt>
      <trkpt lat="43.6791" lon="6.11431">
        <ele>564</ele>
        <time>2024-11-27T13:28:42Z</time>
      </trkpt>
      <trkpt lat="43.67913" lon="6.11426">
        <ele>564</ele>
      </trkpt>
      <trkpt lat="43.67917" lon="6.11421">
        <ele>564</ele>
        <time>2024-11-27T13:28:51Z</time>
      </trkpt>
      <trkpt lat="43.6792" lon="6.11415">
        <ele>564.1</ele>
      </trkpt>
      <trkpt lat="43.67923" lon="6.11409">
        <ele>564.2</ele>
        <time>2024-11-27T13:29:01Z</time>
      </trkpt>
      <trkpt lat="43.67926" lon="6.11402">
        <ele>564.4</ele>
      </trkpt>
      <trkpt lat="43.67929" lon="6.11395">
        <ele>564.4</ele>
        <time>2024-11-27T13:29:13Z</time>
      </trkpt>
      <trkpt lat="43.67932" lon="6.11389">
        <ele>564.4</ele>
      </trkpt>
      <trkpt lat="43.67935" lon="6.11382">
        <ele>564.3</ele>
        <time>2024-11-27T13:29:25Z</time>
      </trkpt>
      <trkpt lat="43.67938" lon="6.11373">
        <ele>564.1</ele>
      </trkpt>
      <trkpt lat="43.67941" lon="6.11365">
        <ele>564</ele>
        <time>2024-11-27T13:29:36Z</time>
      </trkpt>
      <trkpt lat="43.6794" lon="6.11356">
        <ele>564</ele>
      </trkpt>
      <trkpt lat="43.67939" lon="6.11348">
        <ele>564</ele>
        <time>2024-11-27T13:29:49Z</time>
      </trkpt>
      <trkpt lat="43.67938" lon="6.1134">
        <ele>564</ele>
      </trkpt>
      <trkpt lat="43.67938" lon="6.11332">
        <ele>564</ele>
        <time>2024-11-27T13:30:00Z</time>
      </trkpt>
      <trkpt lat="43.67939" lon="6.11325">
        <ele>564</ele>
      </trkpt>
      <trkpt lat="43.67941" lon="6.11317">
        <ele>564</ele>
        <time>2024-11-27T13:30:10Z</time>
      </trkpt>
      <trkpt lat="43.67945" lon="6.11312">
        <ele>564</ele>
      </trkpt>
      <trkpt lat="43.6795" lon="6.11307">
        <ele>564</ele>
        <time>2024-11-27T13:30:23Z</time>
      </trkpt>
      <trkpt lat="43.67955" lon="6.11303">
        <ele>564</ele>
      </trkpt>
      <trkpt lat="43.6796" lon="6.113">
        <ele>564</ele>
        <time>2024-11-27T13:30:34Z</time>
      </trkpt>
      <trkpt lat="43.67966" lon="6.11294">
        <ele>564</ele>
      </trkpt>
      <trkpt lat="43.67971" lon="6.11288">
        <ele>564</ele>
        <time>2024-11-27T13:30:44Z</time>
      </trkpt>
      <trkpt lat="43.67975" lon="6.11283">
        <ele>564</ele>
      </trkpt>
      <trkpt lat="43.67979" lon="6.11278">
        <ele>564</ele>
        <time>2024-11-27T13:30:53Z</time>
      </trkpt>
      <trkpt lat="43.67983" lon="6.11274">
        <ele>564</ele>
      </trkpt>
      <trkpt lat="43.67987" lon="6.11269">
        <ele>564</ele>
        <time>2024-11-27T13:31:03Z</time>
      </trkpt>
      <trkpt lat="43.6799" lon="6.11263">
        <ele>564</ele>
      </trkpt>
      <trkpt lat="43.67994" lon="6.11256">
        <ele>564</ele>
        <time>2024-11-27T13:31:12Z</time>
      </trkpt>
      <trkpt lat="43.67997" lon="6.1125">
        <ele>564</ele>
      </trkpt>
      <trkpt lat="43.68" lon="6.11245">
        <ele>564</ele>
        <time>2024-11-27T13:31:21Z</time>
      </trkpt>
      <trkpt lat="43.68005" lon="6.1124">
        <ele>563.9</ele>
      </trkpt>
      <trkpt lat="43.68009" lon="6.11235">
        <ele>563.8</ele>
        <time>2024-11-27T13:31:31Z</time>
      </trkpt>
      <trkpt lat="43.68014" lon="6.11231">
        <ele>563.7</ele>
      </trkpt>
      <trkpt lat="43.68018" lon="6.11226">
        <ele>563.4</ele>
        <time>2024-11-27T13:31:39Z</time>
      </trkpt>
      <trkpt lat="43.68022" lon="6.11221">
        <ele>563.2</ele>
      </trkpt>
      <trkpt lat="43.68026" lon="6.11215">
        <ele>563.1</ele>
        <time>2024-11-27T13:31:48Z</time>
      </trkpt>
      <trkpt lat="43.68029" lon="6.11209">
        <ele>563</ele>
      </trkpt>
      <trkpt lat="43.68033" lon="6.11203">
        <ele>563</ele>
        <time>2024-11-27T13:31:58Z</time>
      </trkpt>
      <trkpt lat="43.68036" lon="6.11197">
        <ele>563</ele>
      </trkpt>
      <trkpt lat="43.68039" lon="6.1119">
        <ele>563</ele>
        <time>2024-11-27T13:32:09Z</time>
      </trkpt>
      <trkpt lat="43.68043" lon="6.11183">
        <ele>563</ele>
      </trkpt>
      <trkpt lat="43.68046" lon="6.11176">
        <ele>563</ele>
        <time>2024-11-27T13:32:19Z</time>
      </trkpt>
      <trkpt lat="43.68049" lon="6.11169">
        <ele>563</ele>
      </trkpt>
      <trkpt lat="43.68053" lon="6.11163">
        <ele>563</ele>
        <time>2024-11-27T13:32:29Z</time>
      </trkpt>
      <trkpt lat="43.68056" lon="6.11156">
        <ele>563</ele>
      </trkpt>
      <trkpt lat="43.68059" lon="6.11148">
        <ele>562.9</ele>
        <time>2024-11-27T13:32:39Z</time>
      </trkpt>
      <trkpt lat="43.68062" lon="6.11142">
        <ele>562.8</ele>
      </trkpt>
      <trkpt lat="43.68066" lon="6.11135">
        <ele>562.6</ele>
        <time>2024-11-27T13:32:49Z</time>
      </trkpt>
      <trkpt lat="43.68069" lon="6.11129">
        <ele>562.5</ele>
      </trkpt>
      <trkpt lat="43.68073" lon="6.11123">
        <ele>562.4</ele>
        <time>2024-11-27T13:32:59Z</time>
      </trkpt>
      <trkpt lat="43.68076" lon="6.11117">
        <ele>562.3</ele>
      </trkpt>
      <trkpt lat="43.68079" lon="6.11112">
        <ele>562.1</ele>
        <time>2024-11-27T13:33:09Z</time>
      </trkpt>
      <trkpt lat="43.68082" lon="6.11103">
        <ele>562</ele>
      </trkpt>
      <trkpt lat="43.68085" lon="6.11094">
        <ele>562</ele>
        <time>2024-11-27T13:33:18Z</time>
      </trkpt>
      <trkpt lat="43.68088" lon="6.11088">
        <ele>562</ele>
      </trkpt>
      <trkpt lat="43.68091" lon="6.11083">
        <ele>562</ele>
        <time>2024-11-27T13:33:27Z</time>
      </trkpt>
      <trkpt lat="43.68094" lon="6.11078">
        <ele>561.9</ele>
      </trkpt>
      <trkpt lat="43.68098" lon="6.11073">
        <ele>561.8</ele>
        <time>2024-11-27T13:34:03Z</time>
      </trkpt>
      <trkpt lat="43.68098" lon="6.1107">
        <ele>561.7</ele>
        <time>2024-11-27T13:35:43Z</time>
      </trkpt>
      <trkpt lat="43.68097" lon="6.11059">
        <ele>561.6</ele>
        <time>2024-11-27T13:36:02Z</time>
      </trkpt>
      <trkpt lat="43.68098" lon="6.11052">
        <ele>561.4</ele>
      </trkpt>
      <trkpt lat="43.68099" lon="6.11046">
        <ele>561.3</ele>
        <time>2024-11-27T13:36:12Z</time>
      </trkpt>
      <trkpt lat="43.68103" lon="6.11042">
        <ele>561.1</ele>
      </trkpt>
      <trkpt lat="43.68107" lon="6.11037">
        <ele>561.1</ele>
        <time>2024-11-27T13:36:23Z</time>
      </trkpt>
      <trkpt lat="43.68111" lon="6.11033">
        <ele>561</ele>
      </trkpt>
      <trkpt lat="43.68116" lon="6.11028">
        <ele>561</ele>
        <time>2024-11-27T13:36:33Z</time>
      </trkpt>
      <trkpt lat="43.68122" lon="6.11029">
        <ele>561</ele>
      </trkpt>
      <trkpt lat="43.68128" lon="6.1103">
        <ele>561</ele>
        <time>2024-11-27T13:36:47Z</time>
      </trkpt>
      <trkpt lat="43.68135" lon="6.11032">
        <ele>561</ele>
      </trkpt>
      <trkpt lat="43.68142" lon="6.11033">
        <ele>560.9</ele>
        <time>2024-11-27T13:36:58Z</time>
      </trkpt>
      <trkpt lat="43.68149" lon="6.11035">
        <ele>560.7</ele>
      </trkpt>
      <trkpt lat="43.68156" lon="6.11037">
        <ele>560.4</ele>
        <time>2024-11-27T13:37:08Z</time>
      </trkpt>
      <trkpt lat="43.68161" lon="6.11038">
        <ele>560.2</ele>
      </trkpt>
      <trkpt lat="43.68167" lon="6.1104">
        <ele>560</ele>
        <time>2024-11-27T13:37:19Z</time>
      </trkpt>
      <trkpt lat="43.68173" lon="6.11041">
        <ele>559.8</ele>
      </trkpt>
      <trkpt lat="43.68178" lon="6.11043">
        <ele>559.6</ele>
        <time>2024-11-27T13:37:30Z</time>
      </trkpt>
      <trkpt lat="43.68184" lon="6.11044">
        <ele>559.4</ele>
      </trkpt>
      <trkpt lat="43.6819" lon="6.11046">
        <ele>559.2</ele>
        <time>2024-11-27T13:37:40Z</time>
      </trkpt>
      <trkpt lat="43.68196" lon="6.11048">
        <ele>559</ele>
      </trkpt>
      <trkpt lat="43.68202" lon="6.1105">
        <ele>559</ele>
        <time>2024-11-27T13:37:51Z</time>
      </trkpt>
      <trkpt lat="43.68207" lon="6.11051">
        <ele>559</ele>
      </trkpt>
      <trkpt lat="43.68213" lon="6.11052">
        <ele>559</ele>
        <time>2024-11-27T13:38:01Z</time>
      </trkpt>
      <trkpt lat="43.6822" lon="6.11053">
        <ele>559</ele>
      </trkpt>
      <trkpt lat="43.68226" lon="6.11054">
        <ele>558.9</ele>
        <time>2024-11-27T13:38:11Z</time>
      </trkpt>
      <trkpt lat="43.68232" lon="6.11054">
        <ele>558.6</ele>
      </trkpt>
      <trkpt lat="43.68238" lon="6.11055">
        <ele>558.4</ele>
        <time>2024-11-27T13:38:21Z</time>
      </trkpt>
      <trkpt lat="43.68243" lon="6.11057">
        <ele>558.2</ele>
      </trkpt>
      <trkpt lat="43.68249" lon="6.1106">
        <ele>558.1</ele>
        <time>2024-11-27T13:38:33Z</time>
      </trkpt>
      <trkpt lat="43.68255" lon="6.11061">
        <ele>557.8</ele>
      </trkpt>
      <trkpt lat="43.68262" lon="6.11062">
        <ele>557.6</ele>
        <time>2024-11-27T13:38:45Z</time>
      </trkpt>
      <trkpt lat="43.6827" lon="6.11063">
        <ele>557.3</ele>
      </trkpt>
      <trkpt lat="43.68278" lon="6.11064">
        <ele>557</ele>
        <time>2024-11-27T13:38:58Z</time>
      </trkpt>
      <trkpt lat="43.68285" lon="6.11064">
        <ele>556.8</ele>
      </trkpt>
      <trkpt lat="43.68292" lon="6.11063">
        <ele>556.5</ele>
        <time>2024-11-27T13:39:11Z</time>
      </trkpt>
      <trkpt lat="43.683" lon="6.11065">
        <ele>556.2</ele>
      </trkpt>
      <trkpt lat="43.68308" lon="6.11066">
        <ele>555.9</ele>
        <time>2024-11-27T13:39:24Z</time>
      </trkpt>
      <trkpt lat="43.68314" lon="6.11065">
        <ele>555.7</ele>
      </trkpt>
      <trkpt lat="43.68319" lon="6.11065">
        <ele>555.5</ele>
        <time>2024-11-27T13:39:34Z</time>
      </trkpt>
      <trkpt lat="43.68325" lon="6.11065">
        <ele>555.3</ele>
      </trkpt>
      <trkpt lat="43.68331" lon="6.11065">
        <ele>555.1</ele>
        <time>2024-11-27T13:39:44Z</time>
      </trkpt>
      <trkpt lat="43.68337" lon="6.11065">
        <ele>554.8</ele>
      </trkpt>
      <trkpt lat="43.68343" lon="6.11065">
        <ele>554.6</ele>
        <time>2024-11-27T13:39:53Z</time>
      </trkpt>
      <trkpt lat="43.68349" lon="6.11064">
        <ele>554.3</ele>
      </trkpt>
      <trkpt lat="43.68355" lon="6.11063">
        <ele>554</ele>
        <time>2024-11-27T13:40:03Z</time>
      </trkpt>
      <trkpt lat="43.68361" lon="6.11063">
        <ele>553.8</ele>
      </trkpt>
      <trkpt lat="43.68366" lon="6.11062">
        <ele>553.5</ele>
        <time>2024-11-27T13:40:14Z</time>
      </trkpt>
      <trkpt lat="43.68372" lon="6.11062">
        <ele>553.3</ele>
      </trkpt>
      <trkpt lat="43.68378" lon="6.11062">
        <ele>553</ele>
        <time>2024-11-27T13:40:25Z</time>
      </trkpt>
      <trkpt lat="43.68385" lon="6.11061">
        <ele>552.8</ele>
      </trkpt>
      <trkpt lat="43.68391" lon="6.1106">
        <ele>552.5</ele>
        <time>2024-11-27T13:40:36Z</time>
      </trkpt>
      <trkpt lat="43.68397" lon="6.1106">
        <ele>552.2</ele>
      </trkpt>
      <trkpt lat="43.68402" lon="6.1106">
        <ele>551.8</ele>
        <time>2024-11-27T13:40:46Z</time>
      </trkpt>
      <trkpt lat="43.68409" lon="6.1106">
        <ele>551.3</ele>
      </trkpt>
      <trkpt lat="43.68416" lon="6.1106">
        <ele>550.9</ele>
        <time>2024-11-27T13:40:58Z</time>
      </trkpt>
      <trkpt lat="43.68423" lon="6.11059">
        <ele>550.2</ele>
      </trkpt>
      <trkpt lat="43.68429" lon="6.11058">
        <ele>549.5</ele>
        <time>2024-11-27T13:41:10Z</time>
      </trkpt>
      <trkpt lat="43.68435" lon="6.11059">
        <ele>548.9</ele>
      </trkpt>
      <trkpt lat="43.68441" lon="6.11059">
        <ele>548.3</ele>
        <time>2024-11-27T13:41:20Z</time>
      </trkpt>
      <trkpt lat="43.68446" lon="6.11057">
        <ele>547.8</ele>
      </trkpt>
      <trkpt lat="43.68452" lon="6.11055">
        <ele>547.5</ele>
        <time>2024-11-27T13:41:30Z</time>
      </trkpt>
      <trkpt lat="43.68458" lon="6.11055">
        <ele>547</ele>
      </trkpt>
      <trkpt lat="43.68464" lon="6.11056">
        <ele>546.6</ele>
        <time>2024-11-27T13:41:43Z</time>
      </trkpt>
      <trkpt lat="43.68471" lon="6.11056">
        <ele>546.1</ele>
      </trkpt>
      <trkpt lat="43.68477" lon="6.11057">
        <ele>545.6</ele>
        <time>2024-11-27T13:41:55Z</time>
      </trkpt>
      <trkpt lat="43.68483" lon="6.11059">
        <ele>545</ele>
      </trkpt>
      <trkpt lat="43.6849" lon="6.1106">
        <ele>544.4</ele>
        <time>2024-11-27T13:42:06Z</time>
      </trkpt>
      <trkpt lat="43.68498" lon="6.1106">
        <ele>543.8</ele>
      </trkpt>
      <trkpt lat="43.68505" lon="6.11061">
        <ele>543.1</ele>
        <time>2024-11-27T13:42:21Z</time>
      </trkpt>
      <trkpt lat="43.6851" lon="6.11063">
        <ele>542.5</ele>
      </trkpt>
      <trkpt lat="43.68514" lon="6.11065">
        <ele>542</ele>
        <time>2024-11-27T13:42:38Z</time>
      </trkpt>
      <trkpt lat="43.68519" lon="6.11071">
        <ele>541.3</ele>
      </trkpt>
      <trkpt lat="43.68523" lon="6.11077">
        <ele>540.6</ele>
        <time>2024-11-27T13:42:48Z</time>
      </trkpt>
      <trkpt lat="43.68528" lon="6.1108">
        <ele>540.1</ele>
      </trkpt>
      <trkpt lat="43.68533" lon="6.11083">
        <ele>539.7</ele>
        <time>2024-11-27T13:42:59Z</time>
      </trkpt>
      <trkpt lat="43.68539" lon="6.11083">
        <ele>539.2</ele>
      </trkpt>
      <trkpt lat="43.68545" lon="6.11084">
        <ele>538.7</ele>
        <time>2024-11-27T13:43:11Z</time>
      </trkpt>
      <trkpt lat="43.6855" lon="6.11085">
        <ele>538.3</ele>
      </trkpt>
      <trkpt lat="43.68556" lon="6.11086">
        <ele>537.8</ele>
        <time>2024-11-27T13:43:30Z</time>
      </trkpt>
      <trkpt lat="43.68561" lon="6.11084">
        <ele>537.1</ele>
      </trkpt>
      <trkpt lat="43.68567" lon="6.11082">
        <ele>536.4</ele>
        <time>2024-11-27T13:43:41Z</time>
      </trkpt>
      <trkpt lat="43.68572" lon="6.11078">
        <ele>536</ele>
      </trkpt>
      <trkpt lat="43.68576" lon="6.11075">
        <ele>535.6</ele>
        <time>2024-11-27T13:43:51Z</time>
      </trkpt>
      <trkpt lat="43.68581" lon="6.11072">
        <ele>535.1</ele>
      </trkpt>
      <trkpt lat="43.68587" lon="6.1107">
        <ele>534.6</ele>
        <time>2024-11-27T13:44:04Z</time>
      </trkpt>
      <trkpt lat="43.68593" lon="6.11075">
        <ele>533.6</ele>
      </trkpt>
      <trkpt lat="43.68599" lon="6.1108">
        <ele>532.6</ele>
        <time>2024-11-27T13:44:15Z</time>
      </trkpt>
      <trkpt lat="43.68603" lon="6.11086">
        <ele>531.8</ele>
      </trkpt>
      <trkpt lat="43.68606" lon="6.11092">
        <ele>530.9</ele>
        <time>2024-11-27T13:44:26Z</time>
      </trkpt>
      <trkpt lat="43.68608" lon="6.11099">
        <ele>530.2</ele>
      </trkpt>
      <trkpt lat="43.68611" lon="6.11107">
        <ele>529.4</ele>
        <time>2024-11-27T13:44:38Z</time>
      </trkpt>
      <trkpt lat="43.68613" lon="6.11114">
        <ele>528.7</ele>
      </trkpt>
      <trkpt lat="43.68615" lon="6.11121">
        <ele>528.2</ele>
        <time>2024-11-27T13:44:50Z</time>
      </trkpt>
      <trkpt lat="43.68615" lon="6.11129">
        <ele>527.9</ele>
      </trkpt>
      <trkpt lat="43.68615" lon="6.11137">
        <ele>527.6</ele>
        <time>2024-11-27T13:45:01Z</time>
      </trkpt>
      <trkpt lat="43.68615" lon="6.11144">
        <ele>527.2</ele>
      </trkpt>
      <trkpt lat="43.68615" lon="6.11151">
        <ele>526.7</ele>
        <time>2024-11-27T13:45:11Z</time>
      </trkpt>
      <trkpt lat="43.68613" lon="6.11159">
        <ele>526.4</ele>
      </trkpt>
      <trkpt lat="43.68611" lon="6.11167">
        <ele>526</ele>
        <time>2024-11-27T13:45:22Z</time>
      </trkpt>
      <trkpt lat="43.6861" lon="6.11175">
        <ele>525.8</ele>
      </trkpt>
      <trkpt lat="43.68609" lon="6.11183">
        <ele>525.6</ele>
        <time>2024-11-27T13:45:34Z</time>
      </trkpt>
      <trkpt lat="43.68608" lon="6.11193">
        <ele>525.4</ele>
      </trkpt>
      <trkpt lat="43.68608" lon="6.11202">
        <ele>525.3</ele>
        <time>2024-11-27T13:45:45Z</time>
      </trkpt>
      <trkpt lat="43.68606" lon="6.11212">
        <ele>525.3</ele>
      </trkpt>
      <trkpt lat="43.68605" lon="6.11221">
        <ele>525.2</ele>
        <time>2024-11-27T13:45:57Z</time>
      </trkpt>
      <trkpt lat="43.68605" lon="6.1123">
        <ele>524.5</ele>
      </trkpt>
      <trkpt lat="43.68606" lon="6.11239">
        <ele>523.6</ele>
        <time>2024-11-27T13:46:07Z</time>
      </trkpt>
      <trkpt lat="43.68605" lon="6.11247">
        <ele>522.9</ele>
      </trkpt>
      <trkpt lat="43.68604" lon="6.11255">
        <ele>522.5</ele>
        <time>2024-11-27T13:46:16Z</time>
      </trkpt>
      <trkpt lat="43.68603" lon="6.11261">
        <ele>522.4</ele>
      </trkpt>
      <trkpt lat="43.68601" lon="6.11268">
        <ele>522.2</ele>
        <time>2024-11-27T13:46:26Z</time>
      </trkpt>
      <trkpt lat="43.68602" lon="6.11274">
        <ele>521.9</ele>
      </trkpt>
      <trkpt lat="43.68602" lon="6.1128">
        <ele>521</ele>
        <time>2024-11-27T13:46:38Z</time>
      </trkpt>
      <trkpt lat="43.68608" lon="6.11282">
        <ele>520.2</ele>
      </trkpt>
      <trkpt lat="43.68613" lon="6.11284">
        <ele>519.3</ele>
        <time>2024-11-27T13:46:51Z</time>
      </trkpt>
      <trkpt lat="43.68618" lon="6.11287">
        <ele>518.2</ele>
      </trkpt>
      <trkpt lat="43.68623" lon="6.1129">
        <ele>517.2</ele>
        <time>2024-11-27T13:47:00Z</time>
      </trkpt>
      <trkpt lat="43.68628" lon="6.11291">
        <ele>516.7</ele>
      </trkpt>
      <trkpt lat="43.68633" lon="6.11292">
        <ele>516.2</ele>
        <time>2024-11-27T13:47:10Z</time>
      </trkpt>
      <trkpt lat="43.68638" lon="6.1129">
        <ele>516.4</ele>
      </trkpt>
      <trkpt lat="43.68643" lon="6.11288">
        <ele>516.5</ele>
        <time>2024-11-27T13:47:19Z</time>
      </trkpt>
      <trkpt lat="43.68647" lon="6.11286">
        <ele>516.6</ele>
      </trkpt>
      <trkpt lat="43.68652" lon="6.11285">
        <ele>516.6</ele>
        <time>2024-11-27T13:47:29Z</time>
      </trkpt>
      <trkpt lat="43.68657" lon="6.11284">
        <ele>516.4</ele>
      </trkpt>
      <trkpt lat="43.68662" lon="6.11283">
        <ele>516.1</ele>
        <time>2024-11-27T13:47:38Z</time>
      </trkpt>
      <trkpt lat="43.68671" lon="6.11286">
        <ele>514.9</ele>
        <time>2024-11-27T13:47:46Z</time>
      </trkpt>
      <trkpt lat="43.68675" lon="6.11288">
        <ele>514.2</ele>
      </trkpt>
      <trkpt lat="43.6868" lon="6.11289">
        <ele>513.5</ele>
        <time>2024-11-27T13:47:56Z</time>
      </trkpt>
      <trkpt lat="43.68685" lon="6.11292">
        <ele>512.6</ele>
      </trkpt>
      <trkpt lat="43.68689" lon="6.11295">
        <ele>511.8</ele>
        <time>2024-11-27T13:48:05Z</time>
      </trkpt>
      <trkpt lat="43.68694" lon="6.11297">
        <ele>511.2</ele>
      </trkpt>
      <trkpt lat="43.68698" lon="6.113">
        <ele>510.6</ele>
        <time>2024-11-27T13:48:14Z</time>
      </trkpt>
      <trkpt lat="43.68704" lon="6.11301">
        <ele>510</ele>
      </trkpt>
      <trkpt lat="43.68709" lon="6.11303">
        <ele>509.4</ele>
        <time>2024-11-27T13:48:25Z</time>
      </trkpt>
      <trkpt lat="43.68714" lon="6.11306">
        <ele>508.6</ele>
      </trkpt>
      <trkpt lat="43.68719" lon="6.11309">
        <ele>507.8</ele>
        <time>2024-11-27T13:48:37Z</time>
      </trkpt>
      <trkpt lat="43.68725" lon="6.1131">
        <ele>507.1</ele>
      </trkpt>
      <trkpt lat="43.68731" lon="6.11312">
        <ele>506.5</ele>
        <time>2024-11-27T13:48:51Z</time>
      </trkpt>
      <trkpt lat="43.68736" lon="6.11311">
        <ele>506.1</ele>
      </trkpt>
      <trkpt lat="43.68742" lon="6.11311">
        <ele>505.8</ele>
        <time>2024-11-27T13:49:01Z</time>
      </trkpt>
      <trkpt lat="43.68748" lon="6.11311">
        <ele>505.4</ele>
      </trkpt>
      <trkpt lat="43.68755" lon="6.11311">
        <ele>504.6</ele>
        <time>2024-11-27T13:49:12Z</time>
      </trkpt>
      <trkpt lat="43.6876" lon="6.11309">
        <ele>504.1</ele>
      </trkpt>
      <trkpt lat="43.68765" lon="6.11308">
        <ele>503.5</ele>
        <time>2024-11-27T13:49:21Z</time>
      </trkpt>
      <trkpt lat="43.6877" lon="6.11306">
        <ele>503</ele>
      </trkpt>
      <trkpt lat="43.68775" lon="6.11304">
        <ele>502.4</ele>
        <time>2024-11-27T13:49:33Z</time>
      </trkpt>
      <trkpt lat="43.6878" lon="6.11312">
        <ele>501.1</ele>
        <time>2024-11-27T13:50:07Z</time>
      </trkpt>
      <trkpt lat="43.68785" lon="6.11316">
        <ele>500.3</ele>
        <time>2024-11-27T13:50:40Z</time>
      </trkpt>
      <trkpt lat="43.68784" lon="6.11322">
        <ele>499.8</ele>
      </trkpt>
      <trkpt lat="43.68783" lon="6.11329">
        <ele>499.2</ele>
        <time>2024-11-27T13:50:55Z</time>
      </trkpt>
      <trkpt lat="43.68785" lon="6.11336">
        <ele>498.7</ele>
      </trkpt>
      <trkpt lat="43.68786" lon="6.11343">
        <ele>498.7</ele>
        <time>2024-11-27T13:51:06Z</time>
      </trkpt>
      <trkpt lat="43.68784" lon="6.11352">
        <ele>498.6</ele>
      </trkpt>
      <trkpt lat="43.68783" lon="6.11361">
        <ele>498.4</ele>
        <time>2024-11-27T13:51:21Z</time>
      </trkpt>
      <trkpt lat="43.68777" lon="6.11363">
        <ele>498.4</ele>
      </trkpt>
      <trkpt lat="43.68771" lon="6.11365">
        <ele>498.9</ele>
        <time>2024-11-27T13:51:34Z</time>
      </trkpt>
      <trkpt lat="43.68763" lon="6.11363">
        <ele>498.9</ele>
      </trkpt>
      <trkpt lat="43.68755" lon="6.11362">
        <ele>498.9</ele>
        <time>2024-11-27T13:51:46Z</time>
      </trkpt>
      <trkpt lat="43.68747" lon="6.11364">
        <ele>499.4</ele>
      </trkpt>
      <trkpt lat="43.6874" lon="6.11366">
        <ele>499.9</ele>
        <time>2024-11-27T13:51:57Z</time>
      </trkpt>
      <trkpt lat="43.68735" lon="6.11367">
        <ele>500.2</ele>
      </trkpt>
      <trkpt lat="43.68729" lon="6.11369">
        <ele>500.5</ele>
        <time>2024-11-27T13:52:09Z</time>
      </trkpt>
      <trkpt lat="43.68723" lon="6.11371">
        <ele>500.7</ele>
      </trkpt>
      <trkpt lat="43.68717" lon="6.11373">
        <ele>500.9</ele>
        <time>2024-11-27T13:52:20Z</time>
      </trkpt>
      <trkpt lat="43.68711" lon="6.11373">
        <ele>501.1</ele>
      </trkpt>
      <trkpt lat="43.68705" lon="6.11374">
        <ele>501.2</ele>
        <time>2024-11-27T13:52:30Z</time>
      </trkpt>
      <trkpt lat="43.68699" lon="6.11372">
        <ele>501.1</ele>
      </trkpt>
      <trkpt lat="43.68694" lon="6.1137">
        <ele>501</ele>
        <time>2024-11-27T13:52:39Z</time>
      </trkpt>
      <trkpt lat="43.68689" lon="6.11369">
        <ele>501</ele>
      </trkpt>
      <trkpt lat="43.68683" lon="6.11368">
        <ele>500.9</ele>
        <time>2024-11-27T13:52:48Z</time>
      </trkpt>
      <trkpt lat="43.68677" lon="6.11366">
        <ele>500.8</ele>
      </trkpt>
      <trkpt lat="43.68671" lon="6.11365">
        <ele>500.6</ele>
        <time>2024-11-27T13:52:57Z</time>
      </trkpt>
      <trkpt lat="43.68666" lon="6.11364">
        <ele>500.6</ele>
      </trkpt>
      <trkpt lat="43.68661" lon="6.11364">
        <ele>500.5</ele>
        <time>2024-11-27T13:53:07Z</time>
      </trkpt>
      <trkpt lat="43.68655" lon="6.11364">
        <ele>500.5</ele>
      </trkpt>
      <trkpt lat="43.68649" lon="6.11363">
        <ele>500.5</ele>
        <time>2024-11-27T13:53:18Z</time>
      </trkpt>
      <trkpt lat="43.68644" lon="6.1136">
        <ele>500.3</ele>
      </trkpt>
      <trkpt lat="43.68638" lon="6.11356">
        <ele>501</ele>
        <time>2024-11-27T13:53:28Z</time>
      </trkpt>
      <trkpt lat="43.68633" lon="6.11355">
        <ele>501.3</ele>
      </trkpt>
      <trkpt lat="43.68627" lon="6.11353">
        <ele>501.5</ele>
        <time>2024-11-27T13:53:37Z</time>
      </trkpt>
      <trkpt lat="43.68623" lon="6.11351">
        <ele>501.7</ele>
      </trkpt>
      <trkpt lat="43.68618" lon="6.1135">
        <ele>501.9</ele>
        <time>2024-11-27T13:53:46Z</time>
      </trkpt>
      <trkpt lat="43.68613" lon="6.11346">
        <ele>502.1</ele>
      </trkpt>
      <trkpt lat="43.68608" lon="6.11342">
        <ele>502.2</ele>
        <time>2024-11-27T13:53:55Z</time>
      </trkpt>
      <trkpt lat="43.68602" lon="6.11342">
        <ele>502</ele>
      </trkpt>
      <trkpt lat="43.68597" lon="6.11342">
        <ele>501.8</ele>
        <time>2024-11-27T13:54:04Z</time>
      </trkpt>
      <trkpt lat="43.68593" lon="6.11345">
        <ele>501.7</ele>
      </trkpt>
      <trkpt lat="43.68589" lon="6.11349">
        <ele>501.6</ele>
        <time>2024-11-27T13:54:13Z</time>
      </trkpt>
      <trkpt lat="43.68583" lon="6.11351">
        <ele>501.6</ele>
      </trkpt>
      <trkpt lat="43.68578" lon="6.11353">
        <ele>502.2</ele>
        <time>2024-11-27T13:54:27Z</time>
      </trkpt>
      <trkpt lat="43.68575" lon="6.11361">
        <ele>502</ele>
      </trkpt>
      <trkpt lat="43.68572" lon="6.11368">
        <ele>502.7</ele>
        <time>2024-11-27T13:54:44Z</time>
      </trkpt>
      <trkpt lat="43.6857" lon="6.11374">
        <ele>503.2</ele>
      </trkpt>
      <trkpt lat="43.68569" lon="6.1138">
        <ele>503.6</ele>
      </trkpt>
      <trkpt lat="43.68567" lon="6.11386">
        <ele>503.9</ele>
      </trkpt>
      <trkpt lat="43.68566" lon="6.11392">
        <ele>504</ele>
        <time>2024-11-27T13:54:56Z</time>
      </trkpt>
      <trkpt lat="43.68564" lon="6.11399">
        <ele>504</ele>
      </trkpt>
      <trkpt lat="43.68562" lon="6.11406">
        <ele>503.8</ele>
        <time>2024-11-27T13:55:05Z</time>
      </trkpt>
      <trkpt lat="43.68561" lon="6.11414">
        <ele>503.6</ele>
      </trkpt>
      <trkpt lat="43.68559" lon="6.11421">
        <ele>503.1</ele>
        <time>2024-11-27T13:55:18Z</time>
      </trkpt>
      <trkpt lat="43.68558" lon="6.1143">
        <ele>502.9</ele>
      </trkpt>
      <trkpt lat="43.68557" lon="6.11439">
        <ele>502.6</ele>
        <time>2024-11-27T13:55:31Z</time>
      </trkpt>
      <trkpt lat="43.68555" lon="6.11448">
        <ele>502.3</ele>
      </trkpt>
      <trkpt lat="43.68552" lon="6.11456">
        <ele>502.9</ele>
        <time>2024-11-27T13:55:42Z</time>
      </trkpt>
      <trkpt lat="43.68549" lon="6.1146">
        <ele>503.2</ele>
      </trkpt>
      <trkpt lat="43.68545" lon="6.11464">
        <ele>503.4</ele>
      </trkpt>
      <trkpt lat="43.68542" lon="6.11468">
        <ele>503.4</ele>
      </trkpt>
      <trkpt lat="43.68538" lon="6.11472">
        <ele>503.4</ele>
        <time>2024-11-27T13:55:54Z</time>
      </trkpt>
      <trkpt lat="43.68532" lon="6.11472">
        <ele>503.2</ele>
      </trkpt>
      <trkpt lat="43.68526" lon="6.11471">
        <ele>503.3</ele>
        <time>2024-11-27T13:56:05Z</time>
      </trkpt>
      <trkpt lat="43.68523" lon="6.11466">
        <ele>504</ele>
      </trkpt>
      <trkpt lat="43.68519" lon="6.1146">
        <ele>504.5</ele>
        <time>2024-11-27T13:56:15Z</time>
      </trkpt>
      <trkpt lat="43.68516" lon="6.11455">
        <ele>504.7</ele>
      </trkpt>
      <trkpt lat="43.68512" lon="6.11449">
        <ele>504.7</ele>
        <time>2024-11-27T13:56:25Z</time>
      </trkpt>
      <trkpt lat="43.68512" lon="6.11441">
        <ele>504.7</ele>
      </trkpt>
      <trkpt lat="43.68511" lon="6.11433">
        <ele>504.9</ele>
        <time>2024-11-27T13:56:35Z</time>
      </trkpt>
      <trkpt lat="43.68509" lon="6.11425">
        <ele>505.1</ele>
      </trkpt>
      <trkpt lat="43.68507" lon="6.11417">
        <ele>505.3</ele>
        <time>2024-11-27T13:56:47Z</time>
      </trkpt>
      <trkpt lat="43.68502" lon="6.11409">
        <ele>504.9</ele>
      </trkpt>
      <trkpt lat="43.68498" lon="6.11402">
        <ele>504.8</ele>
        <time>2024-11-27T13:56:59Z</time>
      </trkpt>
      <trkpt lat="43.68492" lon="6.11396">
        <ele>505.2</ele>
      </trkpt>
      <trkpt lat="43.68487" lon="6.1139">
        <ele>505.5</ele>
        <time>2024-11-27T13:57:11Z</time>
      </trkpt>
      <trkpt lat="43.68482" lon="6.11382">
        <ele>506.4</ele>
      </trkpt>
      <trkpt lat="43.68477" lon="6.11375">
        <ele>506.4</ele>
        <time>2024-11-27T13:57:21Z</time>
      </trkpt>
      <trkpt lat="43.68472" lon="6.11371">
        <ele>505.7</ele>
      </trkpt>
      <trkpt lat="43.68467" lon="6.11366">
        <ele>505.6</ele>
        <time>2024-11-27T13:57:31Z</time>
      </trkpt>
      <trkpt lat="43.68463" lon="6.11362">
        <ele>505.4</ele>
      </trkpt>
      <trkpt lat="43.68458" lon="6.11357">
        <ele>506.2</ele>
        <time>2024-11-27T13:57:41Z</time>
      </trkpt>
      <trkpt lat="43.68452" lon="6.11354">
        <ele>506.7</ele>
      </trkpt>
      <trkpt lat="43.68447" lon="6.11351">
        <ele>507.1</ele>
        <time>2024-11-27T13:57:52Z</time>
      </trkpt>
      <trkpt lat="43.68441" lon="6.11351">
        <ele>507.2</ele>
      </trkpt>
      <trkpt lat="43.68436" lon="6.11352">
        <ele>507.3</ele>
        <time>2024-11-27T13:58:01Z</time>
      </trkpt>
      <trkpt lat="43.6843" lon="6.11353">
        <ele>507.3</ele>
      </trkpt>
      <trkpt lat="43.68424" lon="6.11355">
        <ele>507.1</ele>
        <time>2024-11-27T13:58:11Z</time>
      </trkpt>
      <trkpt lat="43.6842" lon="6.11358">
        <ele>506.7</ele>
      </trkpt>
      <trkpt lat="43.68416" lon="6.11361">
        <ele>506.3</ele>
        <time>2024-11-27T13:58:20Z</time>
      </trkpt>
      <trkpt lat="43.68412" lon="6.11365">
        <ele>507.2</ele>
      </trkpt>
      <trkpt lat="43.68409" lon="6.11369">
        <ele>507.9</ele>
        <time>2024-11-27T13:58:29Z</time>
      </trkpt>
      <trkpt lat="43.68405" lon="6.11378">
        <ele>508.2</ele>
      </trkpt>
      <trkpt lat="43.68401" lon="6.11386">
        <ele>507.8</ele>
        <time>2024-11-27T13:58:44Z</time>
      </trkpt>
      <trkpt lat="43.68399" lon="6.11397">
        <ele>507.9</ele>
      </trkpt>
      <trkpt lat="43.68398" lon="6.11407">
        <ele>508.1</ele>
        <time>2024-11-27T13:59:00Z</time>
      </trkpt>
      <trkpt lat="43.68398" lon="6.11417">
        <ele>508.7</ele>
      </trkpt>
      <trkpt lat="43.68399" lon="6.11426">
        <ele>509.4</ele>
        <time>2024-11-27T13:59:13Z</time>
      </trkpt>
      <trkpt lat="43.68399" lon="6.11435">
        <ele>509.9</ele>
      </trkpt>
      <trkpt lat="43.68399" lon="6.11444">
        <ele>510.5</ele>
        <time>2024-11-27T13:59:26Z</time>
      </trkpt>
      <trkpt lat="43.68396" lon="6.1145">
        <ele>511.2</ele>
      </trkpt>
      <trkpt lat="43.68394" lon="6.11457">
        <ele>512.4</ele>
        <time>2024-11-27T13:59:58Z</time>
      </trkpt>
      <trkpt lat="43.68388" lon="6.11462">
        <ele>512</ele>
        <time>2024-11-27T14:01:33Z</time>
      </trkpt>
      <trkpt lat="43.6839" lon="6.1146">
        <ele>512.1</ele>
        <time>2024-11-27T14:02:39Z</time>
      </trkpt>
      <trkpt lat="43.68392" lon="6.11458">
        <ele>512.2</ele>
        <time>2024-11-27T14:04:30Z</time>
      </trkpt>
      <trkpt lat="43.68392" lon="6.11457">
        <ele>511.5</ele>
        <time>2024-11-27T14:05:37Z</time>
      </trkpt>
      <trkpt lat="43.68392" lon="6.11464">
        <ele>514</ele>
        <time>2024-11-27T14:06:43Z</time>
      </trkpt>
      <trkpt lat="43.68387" lon="6.11467">
        <ele>513.8</ele>
      </trkpt>
      <trkpt lat="43.68383" lon="6.1147">
        <ele>513.5</ele>
        <time>2024-11-27T14:07:04Z</time>
      </trkpt>
      <trkpt lat="43.68376" lon="6.11472">
        <ele>511.8</ele>
      </trkpt>
      <trkpt lat="43.68369" lon="6.11475">
        <ele>510.2</ele>
        <time>2024-11-27T14:07:15Z</time>
      </trkpt>
      <trkpt lat="43.68363" lon="6.11477">
        <ele>508.6</ele>
      </trkpt>
      <trkpt lat="43.68357" lon="6.11478">
        <ele>508.7</ele>
        <time>2024-11-27T14:07:27Z</time>
      </trkpt>
      <trkpt lat="43.68351" lon="6.1148">
        <ele>509.1</ele>
      </trkpt>
      <trkpt lat="43.68345" lon="6.11481">
        <ele>509.4</ele>
        <time>2024-11-27T14:07:38Z</time>
      </trkpt>
      <trkpt lat="43.68338" lon="6.11482">
        <ele>509.6</ele>
      </trkpt>
      <trkpt lat="43.68331" lon="6.11483">
        <ele>509.7</ele>
        <time>2024-11-27T14:07:49Z</time>
      </trkpt>
      <trkpt lat="43.68325" lon="6.11484">
        <ele>509.7</ele>
      </trkpt>
      <trkpt lat="43.68319" lon="6.11485">
        <ele>509.7</ele>
        <time>2024-11-27T14:08:00Z</time>
      </trkpt>
      <trkpt lat="43.68313" lon="6.11484">
        <ele>509.5</ele>
      </trkpt>
      <trkpt lat="43.68308" lon="6.11482">
        <ele>509.4</ele>
        <time>2024-11-27T14:08:10Z</time>
      </trkpt>
      <trkpt lat="43.68302" lon="6.1148">
        <ele>509.4</ele>
      </trkpt>
      <trkpt lat="43.68297" lon="6.11478">
        <ele>509.4</ele>
        <time>2024-11-27T14:08:19Z</time>
      </trkpt>
      <trkpt lat="43.68293" lon="6.11475">
        <ele>509.2</ele>
      </trkpt>
      <trkpt lat="43.68288" lon="6.11471">
        <ele>509.3</ele>
        <time>2024-11-27T14:08:28Z</time>
      </trkpt>
      <trkpt lat="43.68283" lon="6.11469">
        <ele>509.9</ele>
      </trkpt>
      <trkpt lat="43.68278" lon="6.11468">
        <ele>510.5</ele>
        <time>2024-11-27T14:08:37Z</time>
      </trkpt>
      <trkpt lat="43.68273" lon="6.11469">
        <ele>510.6</ele>
      </trkpt>
      <trkpt lat="43.68269" lon="6.11471">
        <ele>510.7</ele>
        <time>2024-11-27T14:08:47Z</time>
      </trkpt>
      <trkpt lat="43.68263" lon="6.11478">
        <ele>511.4</ele>
      </trkpt>
      <trkpt lat="43.68258" lon="6.11485">
        <ele>511.9</ele>
        <time>2024-11-27T14:08:57Z</time>
      </trkpt>
      <trkpt lat="43.68254" lon="6.11492">
        <ele>511.7</ele>
      </trkpt>
      <trkpt lat="43.68249" lon="6.11498">
        <ele>511.3</ele>
        <time>2024-11-27T14:09:09Z</time>
      </trkpt>
      <trkpt lat="43.68245" lon="6.11505">
        <ele>512.5</ele>
      </trkpt>
      <trkpt lat="43.68242" lon="6.11512">
        <ele>513.5</ele>
        <time>2024-11-27T14:09:20Z</time>
      </trkpt>
      <trkpt lat="43.68238" lon="6.11519">
        <ele>513.9</ele>
      </trkpt>
      <trkpt lat="43.68235" lon="6.11525">
        <ele>513.8</ele>
        <time>2024-11-27T14:09:31Z</time>
      </trkpt>
      <trkpt lat="43.68232" lon="6.11533">
        <ele>513.8</ele>
      </trkpt>
      <trkpt lat="43.6823" lon="6.1154">
        <ele>513.6</ele>
        <time>2024-11-27T14:09:43Z</time>
      </trkpt>
      <trkpt lat="43.68226" lon="6.11548">
        <ele>513.1</ele>
      </trkpt>
      <trkpt lat="43.68223" lon="6.11556">
        <ele>512.3</ele>
        <time>2024-11-27T14:09:57Z</time>
      </trkpt>
      <trkpt lat="43.68217" lon="6.11563">
        <ele>514.2</ele>
      </trkpt>
      <trkpt lat="43.68212" lon="6.1157">
        <ele>515.1</ele>
        <time>2024-11-27T14:10:07Z</time>
      </trkpt>
      <trkpt lat="43.68207" lon="6.11575">
        <ele>515.1</ele>
      </trkpt>
      <trkpt lat="43.68202" lon="6.11581">
        <ele>514.3</ele>
        <time>2024-11-27T14:10:17Z</time>
      </trkpt>
      <trkpt lat="43.68198" lon="6.11584">
        <ele>513.1</ele>
      </trkpt>
      <trkpt lat="43.68193" lon="6.11587">
        <ele>513.1</ele>
        <time>2024-11-27T14:10:27Z</time>
      </trkpt>
      <trkpt lat="43.68188" lon="6.11591">
        <ele>514</ele>
      </trkpt>
      <trkpt lat="43.68184" lon="6.11594">
        <ele>514.5</ele>
        <time>2024-11-27T14:10:38Z</time>
      </trkpt>
      <trkpt lat="43.68179" lon="6.11597">
        <ele>514.6</ele>
      </trkpt>
      <trkpt lat="43.68174" lon="6.116">
        <ele>514.4</ele>
        <time>2024-11-27T14:10:51Z</time>
      </trkpt>
      <trkpt lat="43.68169" lon="6.11603">
        <ele>513.9</ele>
      </trkpt>
      <trkpt lat="43.68165" lon="6.11606">
        <ele>513.6</ele>
        <time>2024-11-27T14:11:03Z</time>
      </trkpt>
      <trkpt lat="43.6816" lon="6.1161">
        <ele>513.6</ele>
      </trkpt>
      <trkpt lat="43.68155" lon="6.11615">
        <ele>514.4</ele>
        <time>2024-11-27T14:11:17Z</time>
      </trkpt>
      <trkpt lat="43.68151" lon="6.11619">
        <ele>515</ele>
      </trkpt>
      <trkpt lat="43.68147" lon="6.11624">
        <ele>515.4</ele>
      </trkpt>
      <trkpt lat="43.68144" lon="6.11628">
        <ele>515.4</ele>
      </trkpt>
      <trkpt lat="43.6814" lon="6.11633">
        <ele>515.1</ele>
        <time>2024-11-27T14:11:32Z</time>
      </trkpt>
      <trkpt lat="43.68134" lon="6.11639">
        <ele>515.2</ele>
      </trkpt>
      <trkpt lat="43.68128" lon="6.11645">
        <ele>516</ele>
        <time>2024-11-27T14:11:46Z</time>
      </trkpt>
      <trkpt lat="43.68125" lon="6.11653">
        <ele>516.5</ele>
      </trkpt>
      <trkpt lat="43.68122" lon="6.1166">
        <ele>516.5</ele>
        <time>2024-11-27T14:12:03Z</time>
      </trkpt>
      <trkpt lat="43.68119" lon="6.11667">
        <ele>516.1</ele>
      </trkpt>
      <trkpt lat="43.68117" lon="6.11673">
        <ele>515.6</ele>
      </trkpt>
      <trkpt lat="43.68114" lon="6.1168">
        <ele>514.8</ele>
      </trkpt>
      <trkpt lat="43.68111" lon="6.11687">
        <ele>514.1</ele>
        <time>2024-11-27T14:12:15Z</time>
      </trkpt>
      <trkpt lat="43.6811" lon="6.11695">
        <ele>514.3</ele>
      </trkpt>
      <trkpt lat="43.68109" lon="6.11704">
        <ele>514.7</ele>
        <time>2024-11-27T14:12:29Z</time>
      </trkpt>
      <trkpt lat="43.68108" lon="6.1171">
        <ele>515</ele>
      </trkpt>
      <trkpt lat="43.68107" lon="6.11716">
        <ele>515.2</ele>
        <time>2024-11-27T14:12:42Z</time>
      </trkpt>
      <trkpt lat="43.68103" lon="6.11721">
        <ele>515.6</ele>
      </trkpt>
      <trkpt lat="43.68099" lon="6.11726">
        <ele>516.4</ele>
        <time>2024-11-27T14:12:56Z</time>
      </trkpt>
      <trkpt lat="43.68094" lon="6.11729">
        <ele>517</ele>
      </trkpt>
      <trkpt lat="43.68089" lon="6.11732">
        <ele>517.3</ele>
        <time>2024-11-27T14:13:07Z</time>
      </trkpt>
      <trkpt lat="43.68083" lon="6.11733">
        <ele>517.4</ele>
      </trkpt>
      <trkpt lat="43.68077" lon="6.11735">
        <ele>517.6</ele>
        <time>2024-11-27T14:13:19Z</time>
      </trkpt>
      <trkpt lat="43.68071" lon="6.11734">
        <ele>517.7</ele>
      </trkpt>
      <trkpt lat="43.68065" lon="6.11733">
        <ele>517.8</ele>
        <time>2024-11-27T14:13:29Z</time>
      </trkpt>
      <trkpt lat="43.68059" lon="6.11734">
        <ele>517.9</ele>
      </trkpt>
      <trkpt lat="43.68053" lon="6.11736">
        <ele>518</ele>
        <time>2024-11-27T14:13:40Z</time>
      </trkpt>
      <trkpt lat="43.68048" lon="6.11736">
        <ele>517.9</ele>
      </trkpt>
      <trkpt lat="43.68042" lon="6.11736">
        <ele>517.8</ele>
        <time>2024-11-27T14:13:50Z</time>
      </trkpt>
      <trkpt lat="43.68037" lon="6.11734">
        <ele>517.7</ele>
      </trkpt>
      <trkpt lat="43.68031" lon="6.11733">
        <ele>517.7</ele>
        <time>2024-11-27T14:14:00Z</time>
      </trkpt>
      <trkpt lat="43.68025" lon="6.11733">
        <ele>518.2</ele>
      </trkpt>
      <trkpt lat="43.68019" lon="6.11734">
        <ele>519.3</ele>
        <time>2024-11-27T14:14:11Z</time>
      </trkpt>
      <trkpt lat="43.68014" lon="6.11743">
        <ele>518.6</ele>
      </trkpt>
      <trkpt lat="43.68009" lon="6.11753">
        <ele>517.8</ele>
        <time>2024-11-27T14:14:24Z</time>
      </trkpt>
      <trkpt lat="43.68005" lon="6.11762">
        <ele>518.1</ele>
      </trkpt>
      <trkpt lat="43.68001" lon="6.1177">
        <ele>518.1</ele>
        <time>2024-11-27T14:14:34Z</time>
      </trkpt>
      <trkpt lat="43.68003" lon="6.11779">
        <ele>518.4</ele>
      </trkpt>
      <trkpt lat="43.68005" lon="6.11789">
        <ele>519</ele>
        <time>2024-11-27T14:14:45Z</time>
      </trkpt>
      <trkpt lat="43.68008" lon="6.11795">
        <ele>519.4</ele>
      </trkpt>
      <trkpt lat="43.68012" lon="6.11801">
        <ele>519.5</ele>
        <time>2024-11-27T14:14:56Z</time>
      </trkpt>
      <trkpt lat="43.68016" lon="6.11807">
        <ele>519.5</ele>
      </trkpt>
      <trkpt lat="43.68019" lon="6.11812">
        <ele>519.4</ele>
        <time>2024-11-27T14:15:07Z</time>
      </trkpt>
      <trkpt lat="43.68021" lon="6.11819">
        <ele>519.4</ele>
      </trkpt>
      <trkpt lat="43.68023" lon="6.11827">
        <ele>519.3</ele>
        <time>2024-11-27T14:15:18Z</time>
      </trkpt>
      <trkpt lat="43.68021" lon="6.11838">
        <ele>520</ele>
        <time>2024-11-27T14:15:31Z</time>
      </trkpt>
      <trkpt lat="43.68016" lon="6.1184">
        <ele>520.3</ele>
      </trkpt>
      <trkpt lat="43.68011" lon="6.11841">
        <ele>520.5</ele>
        <time>2024-11-27T14:15:45Z</time>
      </trkpt>
      <trkpt lat="43.68005" lon="6.11846">
        <ele>520.6</ele>
      </trkpt>
      <trkpt lat="43.68" lon="6.11851">
        <ele>520.4</ele>
        <time>2024-11-27T14:15:57Z</time>
      </trkpt>
      <trkpt lat="43.67993" lon="6.11858">
        <ele>520.5</ele>
      </trkpt>
      <trkpt lat="43.67987" lon="6.11865">
        <ele>520.7</ele>
        <time>2024-11-27T14:16:12Z</time>
      </trkpt>
      <trkpt lat="43.67983" lon="6.11872">
        <ele>521.2</ele>
      </trkpt>
      <trkpt lat="43.67978" lon="6.11878">
        <ele>521.3</ele>
      </trkpt>
      <trkpt lat="43.67974" lon="6.11885">
        <ele>521.1</ele>
      </trkpt>
      <trkpt lat="43.67969" lon="6.11892">
        <ele>521.7</ele>
        <time>2024-11-27T14:16:23Z</time>
      </trkpt>
      <trkpt lat="43.67968" lon="6.11899">
        <ele>522.1</ele>
      </trkpt>
      <trkpt lat="43.67967" lon="6.11907">
        <ele>522.5</ele>
        <time>2024-11-27T14:16:32Z</time>
      </trkpt>
      <trkpt lat="43.67966" lon="6.11915">
        <ele>522.7</ele>
      </trkpt>
      <trkpt lat="43.67964" lon="6.11922">
        <ele>522.8</ele>
        <time>2024-11-27T14:16:42Z</time>
      </trkpt>
      <trkpt lat="43.67964" lon="6.1193">
        <ele>522.8</ele>
      </trkpt>
      <trkpt lat="43.67963" lon="6.11938">
        <ele>522.7</ele>
        <time>2024-11-27T14:16:52Z</time>
      </trkpt>
      <trkpt lat="43.67963" lon="6.11946">
        <ele>522.8</ele>
      </trkpt>
      <trkpt lat="43.67962" lon="6.11953">
        <ele>523.5</ele>
        <time>2024-11-27T14:17:01Z</time>
      </trkpt>
      <trkpt lat="43.67962" lon="6.1196">
        <ele>524.1</ele>
      </trkpt>
      <trkpt lat="43.67962" lon="6.11966">
        <ele>524.6</ele>
        <time>2024-11-27T14:17:11Z</time>
      </trkpt>
      <trkpt lat="43.67959" lon="6.11972">
        <ele>524.6</ele>
      </trkpt>
      <trkpt lat="43.67956" lon="6.11978">
        <ele>525</ele>
        <time>2024-11-27T14:17:21Z</time>
      </trkpt>
      <trkpt lat="43.6795" lon="6.11983">
        <ele>524.4</ele>
      </trkpt>
      <trkpt lat="43.67944" lon="6.11988">
        <ele>523.7</ele>
        <time>2024-11-27T14:17:30Z</time>
      </trkpt>
      <trkpt lat="43.67939" lon="6.11991">
        <ele>523.9</ele>
      </trkpt>
      <trkpt lat="43.67935" lon="6.11993">
        <ele>523.8</ele>
        <time>2024-11-27T14:17:39Z</time>
      </trkpt>
      <trkpt lat="43.6793" lon="6.11997">
        <ele>523.5</ele>
      </trkpt>
      <trkpt lat="43.67926" lon="6.12001">
        <ele>523.1</ele>
        <time>2024-11-27T14:17:48Z</time>
      </trkpt>
      <trkpt lat="43.67921" lon="6.12004">
        <ele>523.1</ele>
      </trkpt>
      <trkpt lat="43.67917" lon="6.12007">
        <ele>523.1</ele>
        <time>2024-11-27T14:17:57Z</time>
      </trkpt>
      <trkpt lat="43.67912" lon="6.12011">
        <ele>523.9</ele>
      </trkpt>
      <trkpt lat="43.67908" lon="6.12014">
        <ele>524.3</ele>
        <time>2024-11-27T14:18:06Z</time>
      </trkpt>
      <trkpt lat="43.67904" lon="6.12018">
        <ele>524.4</ele>
      </trkpt>
      <trkpt lat="43.67899" lon="6.12023">
        <ele>523.9</ele>
        <time>2024-11-27T14:18:15Z</time>
      </trkpt>
      <trkpt lat="43.67896" lon="6.12029">
        <ele>523.1</ele>
      </trkpt>
      <trkpt lat="43.67892" lon="6.12035">
        <ele>523.3</ele>
        <time>2024-11-27T14:18:24Z</time>
      </trkpt>
      <trkpt lat="43.67889" lon="6.12041">
        <ele>523.4</ele>
      </trkpt>
      <trkpt lat="43.67886" lon="6.12047">
        <ele>524.1</ele>
        <time>2024-11-27T14:18:33Z</time>
      </trkpt>
      <trkpt lat="43.67883" lon="6.12053">
        <ele>524.6</ele>
      </trkpt>
      <trkpt lat="43.67879" lon="6.12059">
        <ele>524.9</ele>
        <time>2024-11-27T14:18:42Z</time>
      </trkpt>
      <trkpt lat="43.67877" lon="6.12065">
        <ele>525.1</ele>
      </trkpt>
      <trkpt lat="43.67874" lon="6.12071">
        <ele>525.3</ele>
        <time>2024-11-27T14:18:50Z</time>
      </trkpt>
      <trkpt lat="43.67873" lon="6.12078">
        <ele>525.4</ele>
      </trkpt>
      <trkpt lat="43.67871" lon="6.12085">
        <ele>525.5</ele>
        <time>2024-11-27T14:18:58Z</time>
      </trkpt>
      <trkpt lat="43.67871" lon="6.12091">
        <ele>525.7</ele>
      </trkpt>
      <trkpt lat="43.67871" lon="6.12097">
        <ele>526</ele>
        <time>2024-11-27T14:19:06Z</time>
      </trkpt>
      <trkpt lat="43.67872" lon="6.12104">
        <ele>526.4</ele>
      </trkpt>
      <trkpt lat="43.67872" lon="6.1211">
        <ele>526.7</ele>
        <time>2024-11-27T14:19:14Z</time>
      </trkpt>
      <trkpt lat="43.67872" lon="6.12117">
        <ele>526.9</ele>
      </trkpt>
      <trkpt lat="43.67871" lon="6.12123">
        <ele>527</ele>
        <time>2024-11-27T14:19:23Z</time>
      </trkpt>
      <trkpt lat="43.67869" lon="6.1213">
        <ele>526.7</ele>
      </trkpt>
      <trkpt lat="43.67867" lon="6.12137">
        <ele>526.2</ele>
        <time>2024-11-27T14:19:33Z</time>
      </trkpt>
      <trkpt lat="43.67865" lon="6.12143">
        <ele>525.8</ele>
      </trkpt>
      <trkpt lat="43.67863" lon="6.1215">
        <ele>525.5</ele>
        <time>2024-11-27T14:19:43Z</time>
      </trkpt>
      <trkpt lat="43.67861" lon="6.12157">
        <ele>525.4</ele>
      </trkpt>
      <trkpt lat="43.67858" lon="6.12163">
        <ele>526.1</ele>
        <time>2024-11-27T14:19:51Z</time>
      </trkpt>
      <trkpt lat="43.67856" lon="6.12171">
        <ele>526.8</ele>
      </trkpt>
      <trkpt lat="43.67854" lon="6.12179">
        <ele>527.2</ele>
        <time>2024-11-27T14:19:59Z</time>
      </trkpt>
      <trkpt lat="43.67853" lon="6.12185">
        <ele>527.4</ele>
      </trkpt>
      <trkpt lat="43.67852" lon="6.12191">
        <ele>527.6</ele>
        <time>2024-11-27T14:20:07Z</time>
      </trkpt>
      <trkpt lat="43.67852" lon="6.12198">
        <ele>527.8</ele>
      </trkpt>
      <trkpt lat="43.67851" lon="6.12205">
        <ele>528</ele>
        <time>2024-11-27T14:20:16Z</time>
      </trkpt>
      <trkpt lat="43.6785" lon="6.12211">
        <ele>528.1</ele>
      </trkpt>
      <trkpt lat="43.67849" lon="6.12218">
        <ele>528.2</ele>
        <time>2024-11-27T14:20:24Z</time>
      </trkpt>
      <trkpt lat="43.67848" lon="6.12224">
        <ele>528.2</ele>
      </trkpt>
      <trkpt lat="43.67846" lon="6.12231">
        <ele>528.2</ele>
        <time>2024-11-27T14:20:33Z</time>
      </trkpt>
      <trkpt lat="43.67845" lon="6.12238">
        <ele>528.2</ele>
      </trkpt>
      <trkpt lat="43.67844" lon="6.12245">
        <ele>528.2</ele>
        <time>2024-11-27T14:20:42Z</time>
      </trkpt>
      <trkpt lat="43.67842" lon="6.1225">
        <ele>527.9</ele>
      </trkpt>
      <trkpt lat="43.6784" lon="6.12256">
        <ele>527.6</ele>
        <time>2024-11-27T14:20:51Z</time>
      </trkpt>
      <trkpt lat="43.67836" lon="6.12259">
        <ele>526.7</ele>
      </trkpt>
      <trkpt lat="43.67832" lon="6.12262">
        <ele>526.1</ele>
        <time>2024-11-27T14:21:00Z</time>
      </trkpt>
      <trkpt lat="43.67828" lon="6.12267">
        <ele>526.3</ele>
      </trkpt>
      <trkpt lat="43.67824" lon="6.12272">
        <ele>526.3</ele>
        <time>2024-11-27T14:21:09Z</time>
      </trkpt>
      <trkpt lat="43.67819" lon="6.12276">
        <ele>526.2</ele>
      </trkpt>
      <trkpt lat="43.67814" lon="6.12279">
        <ele>526.2</ele>
        <time>2024-11-27T14:21:18Z</time>
      </trkpt>
      <trkpt lat="43.67809" lon="6.12282">
        <ele>526.5</ele>
      </trkpt>
      <trkpt lat="43.67804" lon="6.12285">
        <ele>526.7</ele>
        <time>2024-11-27T14:21:27Z</time>
      </trkpt>
      <trkpt lat="43.67799" lon="6.12284">
        <ele>526.6</ele>
      </trkpt>
      <trkpt lat="43.67793" lon="6.12284">
        <ele>526.5</ele>
        <time>2024-11-27T14:21:36Z</time>
      </trkpt>
      <trkpt lat="43.67788" lon="6.12283">
        <ele>526.3</ele>
      </trkpt>
      <trkpt lat="43.67783" lon="6.12282">
        <ele>526.2</ele>
        <time>2024-11-27T14:21:45Z</time>
      </trkpt>
      <trkpt lat="43.67774" lon="6.12281">
        <ele>526.3</ele>
        <time>2024-11-27T14:21:53Z</time>
      </trkpt>
      <trkpt lat="43.67769" lon="6.12281">
        <ele>526.5</ele>
      </trkpt>
      <trkpt lat="43.67764" lon="6.12282">
        <ele>526.8</ele>
        <time>2024-11-27T14:22:01Z</time>
      </trkpt>
      <trkpt lat="43.67759" lon="6.12283">
        <ele>527.1</ele>
      </trkpt>
      <trkpt lat="43.67754" lon="6.12284">
        <ele>527.5</ele>
        <time>2024-11-27T14:22:09Z</time>
      </trkpt>
      <trkpt lat="43.67746" lon="6.12285">
        <ele>527.7</ele>
        <time>2024-11-27T14:22:32Z</time>
      </trkpt>
      <trkpt lat="43.67741" lon="6.12284">
        <ele>527.7</ele>
      </trkpt>
      <trkpt lat="43.67736" lon="6.12284">
        <ele>527.7</ele>
        <time>2024-11-27T14:22:41Z</time>
      </trkpt>
      <trkpt lat="43.67731" lon="6.12285">
        <ele>527.7</ele>
      </trkpt>
      <trkpt lat="43.67726" lon="6.12285">
        <ele>527.8</ele>
        <time>2024-11-27T14:22:50Z</time>
      </trkpt>
      <trkpt lat="43.67721" lon="6.12286">
        <ele>527.9</ele>
      </trkpt>
      <trkpt lat="43.67716" lon="6.12287">
        <ele>528.1</ele>
        <time>2024-11-27T14:22:58Z</time>
      </trkpt>
      <trkpt lat="43.67712" lon="6.12287">
        <ele>528.1</ele>
      </trkpt>
      <trkpt lat="43.67707" lon="6.12286">
        <ele>528.1</ele>
        <time>2024-11-27T14:23:06Z</time>
      </trkpt>
      <trkpt lat="43.67702" lon="6.12288">
        <ele>528.3</ele>
      </trkpt>
      <trkpt lat="43.67697" lon="6.12289">
        <ele>528.4</ele>
        <time>2024-11-27T14:23:15Z</time>
      </trkpt>
      <trkpt lat="43.67692" lon="6.1229">
        <ele>528.6</ele>
      </trkpt>
      <trkpt lat="43.67687" lon="6.1229">
        <ele>528.9</ele>
        <time>2024-11-27T14:23:24Z</time>
      </trkpt>
      <trkpt lat="43.67681" lon="6.12293">
        <ele>529.2</ele>
      </trkpt>
      <trkpt lat="43.67675" lon="6.12295">
        <ele>529.3</ele>
        <time>2024-11-27T14:23:34Z</time>
      </trkpt>
      <trkpt lat="43.6767" lon="6.12298">
        <ele>529.1</ele>
      </trkpt>
      <trkpt lat="43.67665" lon="6.12301">
        <ele>528.8</ele>
        <time>2024-11-27T14:23:45Z</time>
      </trkpt>
      <trkpt lat="43.67659" lon="6.12306">
        <ele>528.6</ele>
      </trkpt>
      <trkpt lat="43.67653" lon="6.12312">
        <ele>529.8</ele>
        <time>2024-11-27T14:23:56Z</time>
      </trkpt>
      <trkpt lat="43.67648" lon="6.12316">
        <ele>530.4</ele>
      </trkpt>
      <trkpt lat="43.67644" lon="6.12321">
        <ele>530.7</ele>
        <time>2024-11-27T14:24:05Z</time>
      </trkpt>
      <trkpt lat="43.67639" lon="6.12322">
        <ele>530.6</ele>
      </trkpt>
      <trkpt lat="43.67634" lon="6.12323">
        <ele>530.8</ele>
        <time>2024-11-27T14:24:14Z</time>
      </trkpt>
      <trkpt lat="43.67628" lon="6.12327">
        <ele>530.7</ele>
      </trkpt>
      <trkpt lat="43.67622" lon="6.12331">
        <ele>530.1</ele>
        <time>2024-11-27T14:24:24Z</time>
      </trkpt>
      <trkpt lat="43.67617" lon="6.12335">
        <ele>529.8</ele>
      </trkpt>
      <trkpt lat="43.67612" lon="6.1234">
        <ele>530</ele>
        <time>2024-11-27T14:24:36Z</time>
      </trkpt>
      <trkpt lat="43.67608" lon="6.12345">
        <ele>530.8</ele>
      </trkpt>
      <trkpt lat="43.67604" lon="6.12349">
        <ele>531.2</ele>
        <time>2024-11-27T14:24:51Z</time>
      </trkpt>
      <trkpt lat="43.67599" lon="6.12354">
        <ele>531.2</ele>
      </trkpt>
      <trkpt lat="43.67594" lon="6.12359">
        <ele>530.7</ele>
        <time>2024-11-27T14:25:06Z</time>
      </trkpt>
      <trkpt lat="43.6759" lon="6.12364">
        <ele>530.5</ele>
      </trkpt>
      <trkpt lat="43.67585" lon="6.1237">
        <ele>530.6</ele>
      </trkpt>
      <trkpt lat="43.67581" lon="6.12376">
        <ele>531.6</ele>
      </trkpt>
      <trkpt lat="43.67576" lon="6.12382">
        <ele>532.5</ele>
        <time>2024-11-27T14:25:19Z</time>
      </trkpt>
      <trkpt lat="43.67573" lon="6.12391">
        <ele>532.8</ele>
      </trkpt>
      <trkpt lat="43.67569" lon="6.12399">
        <ele>533.2</ele>
        <time>2024-11-27T14:25:30Z</time>
      </trkpt>
      <trkpt lat="43.67567" lon="6.12409">
        <ele>533.4</ele>
      </trkpt>
      <trkpt lat="43.67564" lon="6.12419">
        <ele>533.3</ele>
        <time>2024-11-27T14:25:41Z</time>
      </trkpt>
      <trkpt lat="43.67563" lon="6.12427">
        <ele>533.2</ele>
      </trkpt>
      <trkpt lat="43.67561" lon="6.12434">
        <ele>532.9</ele>
        <time>2024-11-27T14:25:53Z</time>
      </trkpt>
      <trkpt lat="43.67557" lon="6.1244">
        <ele>531.7</ele>
      </trkpt>
      <trkpt lat="43.67554" lon="6.12447">
        <ele>531.6</ele>
        <time>2024-11-27T14:26:06Z</time>
      </trkpt>
      <trkpt lat="43.67547" lon="6.12454">
        <ele>533</ele>
      </trkpt>
      <trkpt lat="43.67541" lon="6.12461">
        <ele>533.2</ele>
        <time>2024-11-27T14:26:21Z</time>
      </trkpt>
      <trkpt lat="43.67535" lon="6.12469">
        <ele>532.5</ele>
      </trkpt>
      <trkpt lat="43.67529" lon="6.12478">
        <ele>531.7</ele>
        <time>2024-11-27T14:26:41Z</time>
      </trkpt>
      <trkpt lat="43.67527" lon="6.12486">
        <ele>532.1</ele>
      </trkpt>
      <trkpt lat="43.67525" lon="6.12494">
        <ele>532.9</ele>
        <time>2024-11-27T14:26:56Z</time>
      </trkpt>
      <trkpt lat="43.67523" lon="6.125">
        <ele>533.2</ele>
      </trkpt>
      <trkpt lat="43.67522" lon="6.12506">
        <ele>533.9</ele>
        <time>2024-11-27T14:27:11Z</time>
      </trkpt>
      <trkpt lat="43.6752" lon="6.12514">
        <ele>534.8</ele>
      </trkpt>
      <trkpt lat="43.67518" lon="6.12522">
        <ele>535.3</ele>
        <time>2024-11-27T14:27:25Z</time>
      </trkpt>
      <trkpt lat="43.67515" lon="6.12534">
        <ele>535.9</ele>
      </trkpt>
      <trkpt lat="43.67512" lon="6.12545">
        <ele>536.4</ele>
        <time>2024-11-27T14:27:36Z</time>
      </trkpt>
      <trkpt lat="43.67509" lon="6.12551">
        <ele>536.3</ele>
      </trkpt>
      <trkpt lat="43.67507" lon="6.12558">
        <ele>536.1</ele>
      </trkpt>
      <trkpt lat="43.67504" lon="6.12565">
        <ele>535.8</ele>
      </trkpt>
      <trkpt lat="43.67501" lon="6.12571">
        <ele>535.4</ele>
        <time>2024-11-27T14:27:45Z</time>
      </trkpt>
      <trkpt lat="43.67498" lon="6.12578">
        <ele>535.8</ele>
      </trkpt>
      <trkpt lat="43.67494" lon="6.12585">
        <ele>536.2</ele>
      </trkpt>
      <trkpt lat="43.67491" lon="6.12591">
        <ele>536.4</ele>
      </trkpt>
      <trkpt lat="43.67488" lon="6.12598">
        <ele>536.3</ele>
        <time>2024-11-27T14:27:54Z</time>
      </trkpt>
      <trkpt lat="43.67486" lon="6.12605">
        <ele>536.1</ele>
      </trkpt>
      <trkpt lat="43.67485" lon="6.12613">
        <ele>535.8</ele>
        <time>2024-11-27T14:28:03Z</time>
      </trkpt>
      <trkpt lat="43.67484" lon="6.1262">
        <ele>535.7</ele>
      </trkpt>
      <trkpt lat="43.67483" lon="6.12628">
        <ele>535.5</ele>
        <time>2024-11-27T14:28:12Z</time>
      </trkpt>
      <trkpt lat="43.67481" lon="6.12635">
        <ele>535.3</ele>
      </trkpt>
      <trkpt lat="43.6748" lon="6.12643">
        <ele>535</ele>
        <time>2024-11-27T14:28:21Z</time>
      </trkpt>
      <trkpt lat="43.67479" lon="6.1265">
        <ele>534.8</ele>
      </trkpt>
      <trkpt lat="43.67478" lon="6.12658">
        <ele>534.6</ele>
        <time>2024-11-27T14:28:30Z</time>
      </trkpt>
      <trkpt lat="43.67477" lon="6.12665">
        <ele>534.3</ele>
      </trkpt>
      <trkpt lat="43.67475" lon="6.12673">
        <ele>534</ele>
        <time>2024-11-27T14:28:39Z</time>
      </trkpt>
      <trkpt lat="43.67475" lon="6.1268">
        <ele>534.1</ele>
      </trkpt>
      <trkpt lat="43.67475" lon="6.12687">
        <ele>534.2</ele>
        <time>2024-11-27T14:28:50Z</time>
      </trkpt>
      <trkpt lat="43.67472" lon="6.12694">
        <ele>534</ele>
      </trkpt>
      <trkpt lat="43.6747" lon="6.12702">
        <ele>534.9</ele>
        <time>2024-11-27T14:29:03Z</time>
      </trkpt>
      <trkpt lat="43.67467" lon="6.12713">
        <ele>536.4</ele>
      </trkpt>
      <trkpt lat="43.67465" lon="6.12725">
        <ele>538</ele>
        <time>2024-11-27T14:29:16Z</time>
      </trkpt>
      <trkpt lat="43.67467" lon="6.12732">
        <ele>537.6</ele>
      </trkpt>
      <trkpt lat="43.67469" lon="6.1274">
        <ele>537</ele>
        <time>2024-11-27T14:29:25Z</time>
      </trkpt>
      <trkpt lat="43.67473" lon="6.12741">
        <ele>535.1</ele>
      </trkpt>
      <trkpt lat="43.67478" lon="6.12742">
        <ele>535.4</ele>
        <time>2024-11-27T14:29:34Z</time>
      </trkpt>
      <trkpt lat="43.67483" lon="6.1274">
        <ele>535.7</ele>
      </trkpt>
      <trkpt lat="43.67488" lon="6.12737">
        <ele>535.9</ele>
        <time>2024-11-27T14:29:43Z</time>
      </trkpt>
      <trkpt lat="43.67493" lon="6.12733">
        <ele>535.9</ele>
      </trkpt>
      <trkpt lat="43.67498" lon="6.1273">
        <ele>535.7</ele>
        <time>2024-11-27T14:29:52Z</time>
      </trkpt>
      <trkpt lat="43.67502" lon="6.12726">
        <ele>535.5</ele>
      </trkpt>
      <trkpt lat="43.67506" lon="6.12723">
        <ele>535.3</ele>
        <time>2024-11-27T14:30:01Z</time>
      </trkpt>
      <trkpt lat="43.6751" lon="6.12719">
        <ele>535.6</ele>
      </trkpt>
      <trkpt lat="43.67514" lon="6.12715">
        <ele>536</ele>
        <time>2024-11-27T14:30:10Z</time>
      </trkpt>
      <trkpt lat="43.67518" lon="6.12711">
        <ele>536.3</ele>
      </trkpt>
      <trkpt lat="43.67522" lon="6.12708">
        <ele>536.5</ele>
        <time>2024-11-27T14:30:19Z</time>
      </trkpt>
      <trkpt lat="43.67525" lon="6.12714">
        <ele>536.2</ele>
      </trkpt>
      <trkpt lat="43.67528" lon="6.1272">
        <ele>536.1</ele>
        <time>2024-11-27T14:30:27Z</time>
      </trkpt>
      <trkpt lat="43.67529" lon="6.12728">
        <ele>536.4</ele>
      </trkpt>
      <trkpt lat="43.67529" lon="6.12735">
        <ele>536.8</ele>
        <time>2024-11-27T14:30:36Z</time>
      </trkpt>
      <trkpt lat="43.67528" lon="6.12742">
        <ele>536.8</ele>
      </trkpt>
      <trkpt lat="43.67527" lon="6.12748">
        <ele>537</ele>
        <time>2024-11-27T14:30:45Z</time>
      </trkpt>
      <trkpt lat="43.67524" lon="6.12757">
        <ele>537.6</ele>
      </trkpt>
      <trkpt lat="43.67521" lon="6.12765">
        <ele>538.4</ele>
        <time>2024-11-27T14:30:54Z</time>
      </trkpt>
      <trkpt lat="43.67521" lon="6.12772">
        <ele>539</ele>
      </trkpt>
      <trkpt lat="43.67521" lon="6.12778">
        <ele>539.5</ele>
        <time>2024-11-27T14:31:03Z</time>
      </trkpt>
      <trkpt lat="43.6752" lon="6.12791">
        <ele>539.7</ele>
        <time>2024-11-27T14:31:13Z</time>
      </trkpt>
      <trkpt lat="43.67521" lon="6.128">
        <ele>539.7</ele>
      </trkpt>
      <trkpt lat="43.67521" lon="6.12809">
        <ele>539.5</ele>
        <time>2024-11-27T14:31:26Z</time>
      </trkpt>
      <trkpt lat="43.67524" lon="6.12816">
        <ele>538.9</ele>
      </trkpt>
      <trkpt lat="43.67526" lon="6.12822">
        <ele>538.2</ele>
        <time>2024-11-27T14:31:35Z</time>
      </trkpt>
      <trkpt lat="43.67529" lon="6.12827">
        <ele>537.7</ele>
      </trkpt>
      <trkpt lat="43.67531" lon="6.12833">
        <ele>538.3</ele>
        <time>2024-11-27T14:31:44Z</time>
      </trkpt>
      <trkpt lat="43.67534" lon="6.12839">
        <ele>539.4</ele>
      </trkpt>
      <trkpt lat="43.67537" lon="6.12845">
        <ele>540.3</ele>
        <time>2024-11-27T14:31:54Z</time>
      </trkpt>
      <trkpt lat="43.67538" lon="6.12852">
        <ele>540.8</ele>
      </trkpt>
      <trkpt lat="43.6754" lon="6.12858">
        <ele>541</ele>
        <time>2024-11-27T14:32:03Z</time>
      </trkpt>
      <trkpt lat="43.67542" lon="6.12866">
        <ele>540.9</ele>
      </trkpt>
      <trkpt lat="43.67543" lon="6.12873">
        <ele>540.8</ele>
        <time>2024-11-27T14:32:13Z</time>
      </trkpt>
      <trkpt lat="43.67543" lon="6.1288">
        <ele>540.7</ele>
      </trkpt>
      <trkpt lat="43.67543" lon="6.12886">
        <ele>540.5</ele>
        <time>2024-11-27T14:32:22Z</time>
      </trkpt>
      <trkpt lat="43.67542" lon="6.12895">
        <ele>540.7</ele>
      </trkpt>
      <trkpt lat="43.67541" lon="6.12905">
        <ele>541</ele>
        <time>2024-11-27T14:32:33Z</time>
      </trkpt>
      <trkpt lat="43.67538" lon="6.12911">
        <ele>540.8</ele>
      </trkpt>
      <trkpt lat="43.67534" lon="6.12917">
        <ele>540.1</ele>
        <time>2024-11-27T14:32:46Z</time>
      </trkpt>
      <trkpt lat="43.67528" lon="6.12921">
        <ele>539.7</ele>
      </trkpt>
      <trkpt lat="43.67522" lon="6.12926">
        <ele>540.4</ele>
        <time>2024-11-27T14:32:56Z</time>
      </trkpt>
      <trkpt lat="43.67516" lon="6.1293">
        <ele>540.7</ele>
      </trkpt>
      <trkpt lat="43.67509" lon="6.12934">
        <ele>540.7</ele>
        <time>2024-11-27T14:33:06Z</time>
      </trkpt>
      <trkpt lat="43.67504" lon="6.12938">
        <ele>540.5</ele>
      </trkpt>
      <trkpt lat="43.67499" lon="6.12943">
        <ele>540.1</ele>
        <time>2024-11-27T14:33:17Z</time>
      </trkpt>
      <trkpt lat="43.67495" lon="6.12949">
        <ele>540.6</ele>
      </trkpt>
      <trkpt lat="43.6749" lon="6.12955">
        <ele>541.3</ele>
        <time>2024-11-27T14:33:30Z</time>
      </trkpt>
      <trkpt lat="43.67487" lon="6.12963">
        <ele>542.1</ele>
      </trkpt>
      <trkpt lat="43.67484" lon="6.12971">
        <ele>542.6</ele>
        <time>2024-11-27T14:33:44Z</time>
      </trkpt>
      <trkpt lat="43.67482" lon="6.12981">
        <ele>542.6</ele>
      </trkpt>
      <trkpt lat="43.67479" lon="6.12992">
        <ele>542.3</ele>
        <time>2024-11-27T14:33:55Z</time>
      </trkpt>
      <trkpt lat="43.6748" lon="6.12999">
        <ele>542.7</ele>
      </trkpt>
      <trkpt lat="43.67481" lon="6.13007">
        <ele>542.7</ele>
        <time>2024-11-27T14:34:05Z</time>
      </trkpt>
      <trkpt lat="43.67483" lon="6.13014">
        <ele>542.7</ele>
      </trkpt>
      <trkpt lat="43.67485" lon="6.1302">
        <ele>542.5</ele>
        <time>2024-11-27T14:34:15Z</time>
      </trkpt>
      <trkpt lat="43.6749" lon="6.13026">
        <ele>542.2</ele>
      </trkpt>
      <trkpt lat="43.67494" lon="6.13031">
        <ele>542.3</ele>
        <time>2024-11-27T14:34:25Z</time>
      </trkpt>
      <trkpt lat="43.67498" lon="6.13036">
        <ele>542.6</ele>
      </trkpt>
      <trkpt lat="43.67501" lon="6.13041">
        <ele>543.1</ele>
        <time>2024-11-27T14:34:35Z</time>
      </trkpt>
      <trkpt lat="43.67504" lon="6.13047">
        <ele>543.7</ele>
      </trkpt>
      <trkpt lat="43.67508" lon="6.13052">
        <ele>543.8</ele>
        <time>2024-11-27T14:34:45Z</time>
      </trkpt>
      <trkpt lat="43.67509" lon="6.13058">
        <ele>543.7</ele>
      </trkpt>
      <trkpt lat="43.67511" lon="6.13065">
        <ele>543.8</ele>
        <time>2024-11-27T14:34:54Z</time>
      </trkpt>
      <trkpt lat="43.67514" lon="6.13072">
        <ele>543.8</ele>
      </trkpt>
      <trkpt lat="43.67516" lon="6.13078">
        <ele>543.8</ele>
        <time>2024-11-27T14:35:04Z</time>
      </trkpt>
      <trkpt lat="43.67516" lon="6.13086">
        <ele>543.9</ele>
      </trkpt>
      <trkpt lat="43.67516" lon="6.13093">
        <ele>544.1</ele>
        <time>2024-11-27T14:35:19Z</time>
      </trkpt>
      <trkpt lat="43.67513" lon="6.13101">
        <ele>544.3</ele>
      </trkpt>
      <trkpt lat="43.6751" lon="6.13109">
        <ele>544.1</ele>
        <time>2024-11-27T14:35:35Z</time>
      </trkpt>
      <trkpt lat="43.67505" lon="6.13119">
        <ele>544.1</ele>
      </trkpt>
      <trkpt lat="43.675" lon="6.13128">
        <ele>544.2</ele>
        <time>2024-11-27T14:35:50Z</time>
      </trkpt>
      <trkpt lat="43.67495" lon="6.13139">
        <ele>544.8</ele>
      </trkpt>
      <trkpt lat="43.67491" lon="6.13149">
        <ele>545.4</ele>
        <time>2024-11-27T14:36:07Z</time>
      </trkpt>
      <trkpt lat="43.67488" lon="6.13158">
        <ele>545.7</ele>
      </trkpt>
      <trkpt lat="43.67485" lon="6.13168">
        <ele>545.9</ele>
        <time>2024-11-27T14:36:19Z</time>
      </trkpt>
      <trkpt lat="43.67483" lon="6.13179">
        <ele>546.1</ele>
      </trkpt>
      <trkpt lat="43.67481" lon="6.13189">
        <ele>546.3</ele>
        <time>2024-11-27T14:36:30Z</time>
      </trkpt>
      <trkpt lat="43.67481" lon="6.13197">
        <ele>546.6</ele>
      </trkpt>
      <trkpt lat="43.67482" lon="6.13204">
        <ele>546.7</ele>
        <time>2024-11-27T14:36:41Z</time>
      </trkpt>
      <trkpt lat="43.67483" lon="6.13212">
        <ele>546.9</ele>
      </trkpt>
      <trkpt lat="43.67485" lon="6.1322">
        <ele>546.9</ele>
        <time>2024-11-27T14:36:52Z</time>
      </trkpt>
      <trkpt lat="43.67488" lon="6.13226">
        <ele>546.9</ele>
      </trkpt>
      <trkpt lat="43.67491" lon="6.13232">
        <ele>546.7</ele>
        <time>2024-11-27T14:37:04Z</time>
      </trkpt>
      <trkpt lat="43.67496" lon="6.13237">
        <ele>546.7</ele>
      </trkpt>
      <trkpt lat="43.67502" lon="6.13242">
        <ele>546.6</ele>
        <time>2024-11-27T14:37:15Z</time>
      </trkpt>
      <trkpt lat="43.67506" lon="6.13246">
        <ele>546.4</ele>
      </trkpt>
      <trkpt lat="43.67511" lon="6.1325">
        <ele>546.4</ele>
        <time>2024-11-27T14:37:28Z</time>
      </trkpt>
      <trkpt lat="43.67515" lon="6.13253">
        <ele>546.8</ele>
      </trkpt>
      <trkpt lat="43.67519" lon="6.13257">
        <ele>547.1</ele>
        <time>2024-11-27T14:37:38Z</time>
      </trkpt>
      <trkpt lat="43.67523" lon="6.13261">
        <ele>547.4</ele>
      </trkpt>
      <trkpt lat="43.67527" lon="6.13266">
        <ele>547.6</ele>
        <time>2024-11-27T14:37:49Z</time>
      </trkpt>
      <trkpt lat="43.67528" lon="6.13273">
        <ele>547.8</ele>
      </trkpt>
      <trkpt lat="43.6753" lon="6.1328">
        <ele>548.1</ele>
        <time>2024-11-27T14:38:00Z</time>
      </trkpt>
      <trkpt lat="43.67531" lon="6.13286">
        <ele>548.2</ele>
      </trkpt>
      <trkpt lat="43.67532" lon="6.13293">
        <ele>548.2</ele>
        <time>2024-11-27T14:38:09Z</time>
      </trkpt>
      <trkpt lat="43.67533" lon="6.133">
        <ele>548.3</ele>
      </trkpt>
      <trkpt lat="43.67533" lon="6.13308">
        <ele>548.4</ele>
        <time>2024-11-27T14:38:19Z</time>
      </trkpt>
      <trkpt lat="43.67533" lon="6.13315">
        <ele>548.5</ele>
      </trkpt>
      <trkpt lat="43.67533" lon="6.13322">
        <ele>548.6</ele>
        <time>2024-11-27T14:38:28Z</time>
      </trkpt>
      <trkpt lat="43.67533" lon="6.13329">
        <ele>548.7</ele>
      </trkpt>
      <trkpt lat="43.67532" lon="6.13336">
        <ele>548.7</ele>
        <time>2024-11-27T14:38:38Z</time>
      </trkpt>
      <trkpt lat="43.67531" lon="6.13344">
        <ele>548.8</ele>
      </trkpt>
      <trkpt lat="43.6753" lon="6.13351">
        <ele>548.9</ele>
        <time>2024-11-27T14:38:47Z</time>
      </trkpt>
      <trkpt lat="43.6753" lon="6.13358">
        <ele>549.2</ele>
      </trkpt>
      <trkpt lat="43.6753" lon="6.13365">
        <ele>549.3</ele>
        <time>2024-11-27T14:38:57Z</time>
      </trkpt>
      <trkpt lat="43.6753" lon="6.13372">
        <ele>549.4</ele>
      </trkpt>
      <trkpt lat="43.6753" lon="6.1338">
        <ele>549.4</ele>
        <time>2024-11-27T14:39:07Z</time>
      </trkpt>
      <trkpt lat="43.67531" lon="6.13387">
        <ele>549.5</ele>
      </trkpt>
      <trkpt lat="43.67532" lon="6.13394">
        <ele>549.8</ele>
        <time>2024-11-27T14:39:17Z</time>
      </trkpt>
      <trkpt lat="43.67532" lon="6.13402">
        <ele>550.2</ele>
      </trkpt>
      <trkpt lat="43.67533" lon="6.1341">
        <ele>550.5</ele>
        <time>2024-11-27T14:39:28Z</time>
      </trkpt>
      <trkpt lat="43.67534" lon="6.13417">
        <ele>550.8</ele>
      </trkpt>
      <trkpt lat="43.67534" lon="6.13424">
        <ele>550.7</ele>
        <time>2024-11-27T14:39:38Z</time>
      </trkpt>
      <trkpt lat="43.67535" lon="6.13433">
        <ele>550.5</ele>
      </trkpt>
      <trkpt lat="43.67536" lon="6.13442">
        <ele>550.3</ele>
        <time>2024-11-27T14:39:49Z</time>
      </trkpt>
      <trkpt lat="43.67538" lon="6.13449">
        <ele>550.3</ele>
      </trkpt>
      <trkpt lat="43.67539" lon="6.13457">
        <ele>550.3</ele>
        <time>2024-11-27T14:40:00Z</time>
      </trkpt>
      <trkpt lat="43.67544" lon="6.13461">
        <ele>550.5</ele>
      </trkpt>
      <trkpt lat="43.67548" lon="6.13466">
        <ele>550.5</ele>
        <time>2024-11-27T14:40:12Z</time>
      </trkpt>
      <trkpt lat="43.67553" lon="6.13469">
        <ele>550.3</ele>
      </trkpt>
      <trkpt lat="43.67558" lon="6.13473">
        <ele>550.1</ele>
        <time>2024-11-27T14:40:23Z</time>
      </trkpt>
      <trkpt lat="43.67563" lon="6.13476">
        <ele>550.4</ele>
      </trkpt>
      <trkpt lat="43.67569" lon="6.1348">
        <ele>550.6</ele>
        <time>2024-11-27T14:40:33Z</time>
      </trkpt>
      <trkpt lat="43.67573" lon="6.13486">
        <ele>550.8</ele>
      </trkpt>
      <trkpt lat="43.67576" lon="6.13492">
        <ele>550.9</ele>
        <time>2024-11-27T14:40:43Z</time>
      </trkpt>
      <trkpt lat="43.6758" lon="6.13498">
        <ele>551</ele>
      </trkpt>
      <trkpt lat="43.67584" lon="6.13504">
        <ele>551.3</ele>
        <time>2024-11-27T14:40:52Z</time>
      </trkpt>
      <trkpt lat="43.67588" lon="6.1351">
        <ele>551.7</ele>
      </trkpt>
      <trkpt lat="43.67592" lon="6.13515">
        <ele>551.9</ele>
        <time>2024-11-27T14:41:05Z</time>
      </trkpt>
      <trkpt lat="43.67596" lon="6.13521">
        <ele>551.9</ele>
      </trkpt>
      <trkpt lat="43.67599" lon="6.13526">
        <ele>551.8</ele>
        <time>2024-11-27T14:41:17Z</time>
      </trkpt>
      <trkpt lat="43.67603" lon="6.13533">
        <ele>552</ele>
      </trkpt>
      <trkpt lat="43.67607" lon="6.1354">
        <ele>552.3</ele>
        <time>2024-11-27T14:41:28Z</time>
      </trkpt>
      <trkpt lat="43.67611" lon="6.13547">
        <ele>552.4</ele>
      </trkpt>
      <trkpt lat="43.67614" lon="6.13553">
        <ele>552.7</ele>
        <time>2024-11-27T14:41:40Z</time>
      </trkpt>
      <trkpt lat="43.67618" lon="6.1356">
        <ele>553</ele>
      </trkpt>
      <trkpt lat="43.67622" lon="6.13567">
        <ele>553.3</ele>
        <time>2024-11-27T14:41:51Z</time>
      </trkpt>
      <trkpt lat="43.67625" lon="6.13575">
        <ele>553.5</ele>
      </trkpt>
      <trkpt lat="43.67629" lon="6.13584">
        <ele>553.7</ele>
        <time>2024-11-27T14:42:02Z</time>
      </trkpt>
      <trkpt lat="43.67631" lon="6.13591">
        <ele>553.6</ele>
      </trkpt>
      <trkpt lat="43.67633" lon="6.13598">
        <ele>553.4</ele>
        <time>2024-11-27T14:42:13Z</time>
      </trkpt>
      <trkpt lat="43.67635" lon="6.13604">
        <ele>553.3</ele>
      </trkpt>
      <trkpt lat="43.67636" lon="6.1361">
        <ele>553.2</ele>
        <time>2024-11-27T14:42:33Z</time>
      </trkpt>
      <trkpt lat="43.67636" lon="6.13612">
        <ele>553.3</ele>
        <time>2024-11-27T14:43:38Z</time>
      </trkpt>
      <trkpt lat="43.67635" lon="6.13619">
        <ele>553.7</ele>
        <time>2024-11-27T14:44:37Z</time>
      </trkpt>
      <trkpt lat="43.67634" lon="6.13618">
        <ele>553.7</ele>
        <time>2024-11-27T14:45:53Z</time>
      </trkpt>
      <trkpt lat="43.67634" lon="6.1363">
        <ele>554.3</ele>
      </trkpt>
      <trkpt lat="43.67629" lon="6.13635">
        <ele>554.5</ele>
        <time>2024-11-27T14:48:17Z</time>
      </trkpt>
      <trkpt lat="43.67625" lon="6.1364">
        <ele>554.6</ele>
      </trkpt>
      <trkpt lat="43.6762" lon="6.13646">
        <ele>554.8</ele>
        <time>2024-11-27T14:48:32Z</time>
      </trkpt>
      <trkpt lat="43.67618" lon="6.13655">
        <ele>555.4</ele>
      </trkpt>
      <trkpt lat="43.67616" lon="6.13665">
        <ele>556</ele>
        <time>2024-11-27T14:48:49Z</time>
      </trkpt>
      <trkpt lat="43.67616" lon="6.13675">
        <ele>556.2</ele>
      </trkpt>
      <trkpt lat="43.67615" lon="6.13685">
        <ele>556.2</ele>
        <time>2024-11-27T14:49:05Z</time>
      </trkpt>
      <trkpt lat="43.67618" lon="6.13691">
        <ele>556.5</ele>
      </trkpt>
      <trkpt lat="43.67617" lon="6.13699">
        <ele>556.4</ele>
      </trkpt>
      <trkpt lat="43.67613" lon="6.13702">
        <ele>556.1</ele>
        <time>2024-11-27T14:49:32Z</time>
      </trkpt>
      <trkpt lat="43.67608" lon="6.13708">
        <ele>556</ele>
      </trkpt>
      <trkpt lat="43.67603" lon="6.13714">
        <ele>556</ele>
        <time>2024-11-27T14:49:46Z</time>
      </trkpt>
      <trkpt lat="43.676" lon="6.13719">
        <ele>556</ele>
      </trkpt>
      <trkpt lat="43.67597" lon="6.13723">
        <ele>556</ele>
        <time>2024-11-27T14:50:39Z</time>
      </trkpt>
      <trkpt lat="43.67593" lon="6.13729">
        <ele>556.2</ele>
      </trkpt>
      <trkpt lat="43.67589" lon="6.13735">
        <ele>556.4</ele>
        <time>2024-11-27T14:50:52Z</time>
      </trkpt>
      <trkpt lat="43.67585" lon="6.13743">
        <ele>556.7</ele>
      </trkpt>
      <trkpt lat="43.67581" lon="6.13751">
        <ele>557</ele>
        <time>2024-11-27T14:51:12Z</time>
      </trkpt>
      <trkpt lat="43.67577" lon="6.13759">
        <ele>557.2</ele>
      </trkpt>
      <trkpt lat="43.67574" lon="6.13767">
        <ele>557.4</ele>
        <time>2024-11-27T14:51:26Z</time>
      </trkpt>
      <trkpt lat="43.67571" lon="6.13773">
        <ele>557.5</ele>
      </trkpt>
      <trkpt lat="43.67567" lon="6.13779">
        <ele>557.5</ele>
        <time>2024-11-27T14:51:48Z</time>
      </trkpt>
      <trkpt lat="43.67565" lon="6.13789">
        <ele>557.8</ele>
      </trkpt>
      <trkpt lat="43.67562" lon="6.13794">
        <ele>557.8</ele>
        <time>2024-11-27T14:53:45Z</time>
      </trkpt>
      <trkpt lat="43.67559" lon="6.13801">
        <ele>557.9</ele>
      </trkpt>
      <trkpt lat="43.67556" lon="6.13808">
        <ele>558.1</ele>
        <time>2024-11-27T14:54:01Z</time>
      </trkpt>
      <trkpt lat="43.6755" lon="6.13816">
        <ele>558.2</ele>
      </trkpt>
      <trkpt lat="43.67545" lon="6.13825">
        <ele>558.2</ele>
        <time>2024-11-27T14:54:12Z</time>
      </trkpt>
      <trkpt lat="43.67542" lon="6.13832">
        <ele>558</ele>
      </trkpt>
      <trkpt lat="43.67539" lon="6.13839">
        <ele>558.2</ele>
        <time>2024-11-27T14:54:21Z</time>
      </trkpt>
      <trkpt lat="43.67537" lon="6.13845">
        <ele>558.6</ele>
      </trkpt>
      <trkpt lat="43.67535" lon="6.13852">
        <ele>558.9</ele>
        <time>2024-11-27T14:54:29Z</time>
      </trkpt>
      <trkpt lat="43.67532" lon="6.13859">
        <ele>559.2</ele>
      </trkpt>
      <trkpt lat="43.67529" lon="6.13866">
        <ele>559.4</ele>
        <time>2024-11-27T14:54:38Z</time>
      </trkpt>
      <trkpt lat="43.67525" lon="6.13872">
        <ele>559.7</ele>
      </trkpt>
      <trkpt lat="43.67521" lon="6.13878">
        <ele>559.7</ele>
        <time>2024-11-27T14:54:46Z</time>
      </trkpt>
      <trkpt lat="43.67518" lon="6.13884">
        <ele>559.8</ele>
      </trkpt>
      <trkpt lat="43.67516" lon="6.13889">
        <ele>559.7</ele>
        <time>2024-11-27T14:54:54Z</time>
      </trkpt>
      <trkpt lat="43.67513" lon="6.13896">
        <ele>559.8</ele>
      </trkpt>
      <trkpt lat="43.67511" lon="6.13902">
        <ele>559.9</ele>
        <time>2024-11-27T14:55:03Z</time>
      </trkpt>
      <trkpt lat="43.67507" lon="6.1391">
        <ele>560.1</ele>
      </trkpt>
      <trkpt lat="43.67504" lon="6.13917">
        <ele>560.3</ele>
        <time>2024-11-27T14:55:12Z</time>
      </trkpt>
      <trkpt lat="43.67499" lon="6.13923">
        <ele>560.4</ele>
      </trkpt>
      <trkpt lat="43.67494" lon="6.13929">
        <ele>560.6</ele>
        <time>2024-11-27T14:55:23Z</time>
      </trkpt>
      <trkpt lat="43.6749" lon="6.13935">
        <ele>560.6</ele>
      </trkpt>
      <trkpt lat="43.67485" lon="6.13941">
        <ele>560.4</ele>
        <time>2024-11-27T14:55:35Z</time>
      </trkpt>
      <trkpt lat="43.6748" lon="6.13947">
        <ele>560</ele>
      </trkpt>
      <trkpt lat="43.67474" lon="6.13953">
        <ele>559.8</ele>
        <time>2024-11-27T14:55:48Z</time>
      </trkpt>
      <trkpt lat="43.67468" lon="6.13961">
        <ele>560.2</ele>
      </trkpt>
      <trkpt lat="43.67463" lon="6.13968">
        <ele>560.5</ele>
        <time>2024-11-27T14:56:00Z</time>
      </trkpt>
      <trkpt lat="43.67457" lon="6.13978">
        <ele>560.8</ele>
      </trkpt>
      <trkpt lat="43.67452" lon="6.13987">
        <ele>561.3</ele>
        <time>2024-11-27T14:56:10Z</time>
      </trkpt>
      <trkpt lat="43.67448" lon="6.13996">
        <ele>561.8</ele>
      </trkpt>
      <trkpt lat="43.67444" lon="6.14004">
        <ele>562.1</ele>
        <time>2024-11-27T14:56:23Z</time>
      </trkpt>
      <trkpt lat="43.67441" lon="6.1401">
        <ele>562.1</ele>
      </trkpt>
      <trkpt lat="43.67437" lon="6.14015">
        <ele>562</ele>
      </trkpt>
      <trkpt lat="43.67434" lon="6.1402">
        <ele>561.8</ele>
      </trkpt>
      <trkpt lat="43.6743" lon="6.14026">
        <ele>561.5</ele>
        <time>2024-11-27T14:56:35Z</time>
      </trkpt>
      <trkpt lat="43.67427" lon="6.14035">
        <ele>561.6</ele>
      </trkpt>
      <trkpt lat="43.67423" lon="6.14044">
        <ele>561.8</ele>
        <time>2024-11-27T14:56:45Z</time>
      </trkpt>
      <trkpt lat="43.67419" lon="6.14051">
        <ele>561.9</ele>
      </trkpt>
      <trkpt lat="43.67416" lon="6.14058">
        <ele>562.2</ele>
        <time>2024-11-27T14:56:56Z</time>
      </trkpt>
      <trkpt lat="43.67413" lon="6.14065">
        <ele>562.8</ele>
      </trkpt>
      <trkpt lat="43.6741" lon="6.14071">
        <ele>563.1</ele>
        <time>2024-11-27T14:57:07Z</time>
      </trkpt>
      <trkpt lat="43.67407" lon="6.1408">
        <ele>563.2</ele>
      </trkpt>
      <trkpt lat="43.67404" lon="6.14089">
        <ele>563.4</ele>
        <time>2024-11-27T14:57:19Z</time>
      </trkpt>
      <trkpt lat="43.67401" lon="6.14097">
        <ele>563.3</ele>
      </trkpt>
      <trkpt lat="43.67398" lon="6.14105">
        <ele>563.2</ele>
        <time>2024-11-27T14:57:30Z</time>
      </trkpt>
      <trkpt lat="43.67394" lon="6.14112">
        <ele>562.8</ele>
      </trkpt>
      <trkpt lat="43.6739" lon="6.14119">
        <ele>562.7</ele>
        <time>2024-11-27T14:57:42Z</time>
      </trkpt>
      <trkpt lat="43.67385" lon="6.14126">
        <ele>563.2</ele>
      </trkpt>
      <trkpt lat="43.6738" lon="6.14133">
        <ele>563.5</ele>
        <time>2024-11-27T14:57:57Z</time>
      </trkpt>
      <trkpt lat="43.67375" lon="6.14141">
        <ele>563.7</ele>
      </trkpt>
      <trkpt lat="43.6737" lon="6.14149">
        <ele>564.2</ele>
        <time>2024-11-27T14:58:09Z</time>
      </trkpt>
      <trkpt lat="43.67365" lon="6.14159">
        <ele>564.7</ele>
      </trkpt>
      <trkpt lat="43.6736" lon="6.14169">
        <ele>565.1</ele>
        <time>2024-11-27T14:58:20Z</time>
      </trkpt>
      <trkpt lat="43.67357" lon="6.14177">
        <ele>565.5</ele>
      </trkpt>
      <trkpt lat="43.67354" lon="6.14185">
        <ele>565.9</ele>
        <time>2024-11-27T14:58:31Z</time>
      </trkpt>
      <trkpt lat="43.67352" lon="6.14192">
        <ele>566.2</ele>
      </trkpt>
      <trkpt lat="43.67349" lon="6.142">
        <ele>566.2</ele>
        <time>2024-11-27T14:58:45Z</time>
      </trkpt>
      <trkpt lat="43.67345" lon="6.14209">
        <ele>566.1</ele>
      </trkpt>
      <trkpt lat="43.67342" lon="6.14219">
        <ele>565.8</ele>
        <time>2024-11-27T14:58:58Z</time>
      </trkpt>
      <trkpt lat="43.6734" lon="6.14228">
        <ele>565.9</ele>
      </trkpt>
      <trkpt lat="43.67338" lon="6.14237">
        <ele>566</ele>
        <time>2024-11-27T14:59:14Z</time>
      </trkpt>
      <trkpt lat="43.67333" lon="6.14247">
        <ele>565.9</ele>
      </trkpt>
      <trkpt lat="43.67328" lon="6.14258">
        <ele>566.4</ele>
        <time>2024-11-27T14:59:28Z</time>
      </trkpt>
      <trkpt lat="43.67325" lon="6.14268">
        <ele>566.8</ele>
      </trkpt>
      <trkpt lat="43.67321" lon="6.14278">
        <ele>567</ele>
        <time>2024-11-27T14:59:43Z</time>
      </trkpt>
      <trkpt lat="43.67317" lon="6.14286">
        <ele>566.9</ele>
      </trkpt>
      <trkpt lat="43.67313" lon="6.14295">
        <ele>566.7</ele>
        <time>2024-11-27T14:59:55Z</time>
      </trkpt>
      <trkpt lat="43.6731" lon="6.14303">
        <ele>566.3</ele>
      </trkpt>
      <trkpt lat="43.67306" lon="6.14312">
        <ele>566.3</ele>
        <time>2024-11-27T15:00:06Z</time>
      </trkpt>
      <trkpt lat="43.67303" lon="6.1432">
        <ele>566.7</ele>
      </trkpt>
      <trkpt lat="43.673" lon="6.14328">
        <ele>567.2</ele>
        <time>2024-11-27T15:00:17Z</time>
      </trkpt>
      <trkpt lat="43.67296" lon="6.14335">
        <ele>567.7</ele>
      </trkpt>
      <trkpt lat="43.67293" lon="6.14343">
        <ele>568.1</ele>
        <time>2024-11-27T15:00:26Z</time>
      </trkpt>
      <trkpt lat="43.67289" lon="6.14349">
        <ele>568.3</ele>
      </trkpt>
      <trkpt lat="43.67286" lon="6.14355">
        <ele>568.3</ele>
        <time>2024-11-27T15:00:35Z</time>
      </trkpt>
      <trkpt lat="43.67283" lon="6.14361">
        <ele>568.2</ele>
      </trkpt>
      <trkpt lat="43.6728" lon="6.14367">
        <ele>568.1</ele>
        <time>2024-11-27T15:00:44Z</time>
      </trkpt>
      <trkpt lat="43.67277" lon="6.14375">
        <ele>568.1</ele>
      </trkpt>
      <trkpt lat="43.67274" lon="6.14383">
        <ele>568.4</ele>
        <time>2024-11-27T15:00:55Z</time>
      </trkpt>
      <trkpt lat="43.6727" lon="6.1439">
        <ele>568.8</ele>
      </trkpt>
      <trkpt lat="43.67267" lon="6.14397">
        <ele>569.2</ele>
        <time>2024-11-27T15:01:05Z</time>
      </trkpt>
      <trkpt lat="43.67263" lon="6.14403">
        <ele>569.5</ele>
      </trkpt>
      <trkpt lat="43.6726" lon="6.14408">
        <ele>569.7</ele>
        <time>2024-11-27T15:01:14Z</time>
      </trkpt>
      <trkpt lat="43.67257" lon="6.14416">
        <ele>569.8</ele>
      </trkpt>
      <trkpt lat="43.67254" lon="6.14424">
        <ele>569.7</ele>
        <time>2024-11-27T15:01:24Z</time>
      </trkpt>
      <trkpt lat="43.67251" lon="6.14431">
        <ele>569.5</ele>
      </trkpt>
      <trkpt lat="43.67247" lon="6.14438">
        <ele>569.6</ele>
        <time>2024-11-27T15:01:34Z</time>
      </trkpt>
      <trkpt lat="43.67244" lon="6.14445">
        <ele>569.7</ele>
      </trkpt>
      <trkpt lat="43.6724" lon="6.14451">
        <ele>570.1</ele>
        <time>2024-11-27T15:01:43Z</time>
      </trkpt>
      <trkpt lat="43.67237" lon="6.14458">
        <ele>570.4</ele>
      </trkpt>
      <trkpt lat="43.67235" lon="6.14465">
        <ele>570.6</ele>
        <time>2024-11-27T15:01:53Z</time>
      </trkpt>
      <trkpt lat="43.67231" lon="6.14472">
        <ele>570.7</ele>
      </trkpt>
      <trkpt lat="43.67198" lon="6.14536">
        <ele>571.1</ele>
      </trkpt>
      <trkpt lat="43.67193" lon="6.14537">
        <ele>571.4</ele>
        <time>2024-11-27T15:04:02Z</time>
      </trkpt>
      <trkpt lat="43.67188" lon="6.1454">
        <ele>571.6</ele>
      </trkpt>
      <trkpt lat="43.67182" lon="6.14544">
        <ele>571.7</ele>
        <time>2024-11-27T15:04:13Z</time>
      </trkpt>
      <trkpt lat="43.67176" lon="6.14548">
        <ele>571.6</ele>
      </trkpt>
      <trkpt lat="43.67171" lon="6.14552">
        <ele>571.3</ele>
        <time>2024-11-27T15:04:23Z</time>
      </trkpt>
      <trkpt lat="43.67165" lon="6.14556">
        <ele>571.1</ele>
      </trkpt>
      <trkpt lat="43.67159" lon="6.14559">
        <ele>571.7</ele>
        <time>2024-11-27T15:04:33Z</time>
      </trkpt>
      <trkpt lat="43.67153" lon="6.14564">
        <ele>572.1</ele>
      </trkpt>
      <trkpt lat="43.67147" lon="6.14569">
        <ele>572.4</ele>
        <time>2024-11-27T15:04:43Z</time>
      </trkpt>
      <trkpt lat="43.67141" lon="6.14572">
        <ele>572.4</ele>
      </trkpt>
      <trkpt lat="43.67135" lon="6.14576">
        <ele>572.4</ele>
        <time>2024-11-27T15:04:53Z</time>
      </trkpt>
      <trkpt lat="43.6713" lon="6.14578">
        <ele>572.3</ele>
      </trkpt>
      <trkpt lat="43.67125" lon="6.1458">
        <ele>572.2</ele>
        <time>2024-11-27T15:05:01Z</time>
      </trkpt>
      <trkpt lat="43.6712" lon="6.14583">
        <ele>572</ele>
      </trkpt>
      <trkpt lat="43.67114" lon="6.14586">
        <ele>572.1</ele>
        <time>2024-11-27T15:05:10Z</time>
      </trkpt>
      <trkpt lat="43.67108" lon="6.14589">
        <ele>572.4</ele>
      </trkpt>
      <trkpt lat="43.67103" lon="6.14592">
        <ele>572.7</ele>
        <time>2024-11-27T15:05:19Z</time>
      </trkpt>
      <trkpt lat="43.67097" lon="6.14596">
        <ele>573</ele>
      </trkpt>
      <trkpt lat="43.67091" lon="6.14601">
        <ele>573.2</ele>
        <time>2024-11-27T15:05:29Z</time>
      </trkpt>
      <trkpt lat="43.67085" lon="6.14605">
        <ele>573.2</ele>
      </trkpt>
      <trkpt lat="43.67079" lon="6.1461">
        <ele>573.2</ele>
        <time>2024-11-27T15:05:41Z</time>
      </trkpt>
      <trkpt lat="43.67073" lon="6.14613">
        <ele>573.4</ele>
      </trkpt>
      <trkpt lat="43.67068" lon="6.14616">
        <ele>573.7</ele>
        <time>2024-11-27T15:05:52Z</time>
      </trkpt>
      <trkpt lat="43.67062" lon="6.14617">
        <ele>573.9</ele>
      </trkpt>
      <trkpt lat="43.67057" lon="6.14619">
        <ele>574</ele>
        <time>2024-11-27T15:06:02Z</time>
      </trkpt>
      <trkpt lat="43.67051" lon="6.14626">
        <ele>574.2</ele>
      </trkpt>
      <trkpt lat="43.67045" lon="6.14632">
        <ele>574.2</ele>
        <time>2024-11-27T15:06:12Z</time>
      </trkpt>
      <trkpt lat="43.67038" lon="6.14634">
        <ele>574.2</ele>
      </trkpt>
      <trkpt lat="43.67032" lon="6.14637">
        <ele>574.1</ele>
        <time>2024-11-27T15:06:22Z</time>
      </trkpt>
      <trkpt lat="43.67026" lon="6.1464">
        <ele>574.1</ele>
      </trkpt>
      <trkpt lat="43.6702" lon="6.14643">
        <ele>574.4</ele>
        <time>2024-11-27T15:06:31Z</time>
      </trkpt>
      <trkpt lat="43.67013" lon="6.14645">
        <ele>574.6</ele>
      </trkpt>
      <trkpt lat="43.67007" lon="6.14648">
        <ele>574.8</ele>
        <time>2024-11-27T15:06:42Z</time>
      </trkpt>
      <trkpt lat="43.67" lon="6.14652">
        <ele>575</ele>
      </trkpt>
      <trkpt lat="43.66992" lon="6.14655">
        <ele>575</ele>
        <time>2024-11-27T15:06:56Z</time>
      </trkpt>
      <trkpt lat="43.66986" lon="6.1466">
        <ele>575</ele>
      </trkpt>
      <trkpt lat="43.6698" lon="6.14666">
        <ele>575</ele>
        <time>2024-11-27T15:07:07Z</time>
      </trkpt>
      <trkpt lat="43.66974" lon="6.14667">
        <ele>575</ele>
      </trkpt>
      <trkpt lat="43.66968" lon="6.14667">
        <ele>575.2</ele>
        <time>2024-11-27T15:07:16Z</time>
      </trkpt>
      <trkpt lat="43.66961" lon="6.14663">
        <ele>575.4</ele>
      </trkpt>
      <trkpt lat="43.66953" lon="6.1466">
        <ele>575.7</ele>
        <time>2024-11-27T15:07:30Z</time>
      </trkpt>
      <trkpt lat="43.66947" lon="6.14654">
        <ele>575.9</ele>
      </trkpt>
      <trkpt lat="43.66941" lon="6.14648">
        <ele>576.1</ele>
        <time>2024-11-27T15:07:42Z</time>
      </trkpt>
      <trkpt lat="43.66934" lon="6.14643">
        <ele>576.4</ele>
      </trkpt>
      <trkpt lat="43.66928" lon="6.14637">
        <ele>576.6</ele>
        <time>2024-11-27T15:07:54Z</time>
      </trkpt>
      <trkpt lat="43.66924" lon="6.14632">
        <ele>576.8</ele>
      </trkpt>
      <trkpt lat="43.6692" lon="6.14627">
        <ele>576.9</ele>
        <time>2024-11-27T15:08:04Z</time>
      </trkpt>
      <trkpt lat="43.66915" lon="6.14623">
        <ele>577.1</ele>
      </trkpt>
      <trkpt lat="43.6691" lon="6.14618">
        <ele>577.3</ele>
        <time>2024-11-27T15:08:13Z</time>
      </trkpt>
      <trkpt lat="43.66906" lon="6.14614">
        <ele>577.4</ele>
      </trkpt>
      <trkpt lat="43.66902" lon="6.14609">
        <ele>577.6</ele>
        <time>2024-11-27T15:08:23Z</time>
      </trkpt>
      <trkpt lat="43.66897" lon="6.14604">
        <ele>577.8</ele>
      </trkpt>
      <trkpt lat="43.66892" lon="6.14599">
        <ele>577.9</ele>
        <time>2024-11-27T15:08:32Z</time>
      </trkpt>
      <trkpt lat="43.66888" lon="6.14592">
        <ele>578</ele>
      </trkpt>
      <trkpt lat="43.66885" lon="6.14586">
        <ele>578.2</ele>
        <time>2024-11-27T15:08:40Z</time>
      </trkpt>
      <trkpt lat="43.66879" lon="6.1458">
        <ele>578.4</ele>
      </trkpt>
      <trkpt lat="43.66874" lon="6.14575">
        <ele>578.7</ele>
        <time>2024-11-27T15:08:50Z</time>
      </trkpt>
      <trkpt lat="43.66869" lon="6.1457">
        <ele>578.8</ele>
      </trkpt>
      <trkpt lat="43.66865" lon="6.14566">
        <ele>578.9</ele>
        <time>2024-11-27T15:08:59Z</time>
      </trkpt>
      <trkpt lat="43.66862" lon="6.14559">
        <ele>579</ele>
      </trkpt>
      <trkpt lat="43.6686" lon="6.14553">
        <ele>579.1</ele>
        <time>2024-11-27T15:09:07Z</time>
      </trkpt>
      <trkpt lat="43.66854" lon="6.14545">
        <ele>579.3</ele>
      </trkpt>
      <trkpt lat="43.66849" lon="6.14536">
        <ele>579.4</ele>
        <time>2024-11-27T15:09:19Z</time>
      </trkpt>
      <trkpt lat="43.66845" lon="6.14531">
        <ele>579.4</ele>
      </trkpt>
      <trkpt lat="43.66842" lon="6.14526">
        <ele>579.3</ele>
        <time>2024-11-27T15:09:29Z</time>
      </trkpt>
      <trkpt lat="43.66836" lon="6.14519">
        <ele>579.1</ele>
      </trkpt>
      <trkpt lat="43.6683" lon="6.14512">
        <ele>578.9</ele>
        <time>2024-11-27T15:09:40Z</time>
      </trkpt>
      <trkpt lat="43.66824" lon="6.14507">
        <ele>578.7</ele>
      </trkpt>
      <trkpt lat="43.66819" lon="6.14501">
        <ele>578.5</ele>
        <time>2024-11-27T15:09:55Z</time>
      </trkpt>
      <trkpt lat="43.66815" lon="6.14498">
        <ele>578.3</ele>
      </trkpt>
      <trkpt lat="43.66811" lon="6.14494">
        <ele>578.2</ele>
      </trkpt>
      <trkpt lat="43.66807" lon="6.14491">
        <ele>578.1</ele>
      </trkpt>
      <trkpt lat="43.66804" lon="6.14488">
        <ele>577.9</ele>
        <time>2024-11-27T15:10:09Z</time>
      </trkpt>
      <trkpt lat="43.66796" lon="6.14481">
        <ele>577.7</ele>
      </trkpt>
      <trkpt lat="43.66789" lon="6.14475">
        <ele>577.4</ele>
        <time>2024-11-27T15:10:23Z</time>
      </trkpt>
      <trkpt lat="43.66783" lon="6.1447">
        <ele>577.1</ele>
      </trkpt>
      <trkpt lat="43.66777" lon="6.14464">
        <ele>576.7</ele>
        <time>2024-11-27T15:10:33Z</time>
      </trkpt>
      <trkpt lat="43.66769" lon="6.14459">
        <ele>576.7</ele>
      </trkpt>
      <trkpt lat="43.66761" lon="6.14454">
        <ele>576.7</ele>
        <time>2024-11-27T15:10:47Z</time>
      </trkpt>
      <trkpt lat="43.66757" lon="6.14449">
        <ele>576.8</ele>
      </trkpt>
      <trkpt lat="43.66752" lon="6.14443">
        <ele>576.9</ele>
        <time>2024-11-27T15:11:03Z</time>
      </trkpt>
      <trkpt lat="43.66746" lon="6.14438">
        <ele>576.8</ele>
      </trkpt>
      <trkpt lat="43.66741" lon="6.14432">
        <ele>576.6</ele>
        <time>2024-11-27T15:11:14Z</time>
      </trkpt>
      <trkpt lat="43.66737" lon="6.14429">
        <ele>576.4</ele>
      </trkpt>
      <trkpt lat="43.66733" lon="6.14425">
        <ele>576.3</ele>
        <time>2024-11-27T15:11:24Z</time>
      </trkpt>
      <trkpt lat="43.66729" lon="6.1442">
        <ele>576.1</ele>
      </trkpt>
      <trkpt lat="43.66725" lon="6.14415">
        <ele>576</ele>
        <time>2024-11-27T15:11:33Z</time>
      </trkpt>
      <trkpt lat="43.66719" lon="6.14411">
        <ele>576</ele>
      </trkpt>
      <trkpt lat="43.66713" lon="6.14406">
        <ele>576</ele>
        <time>2024-11-27T15:11:42Z</time>
      </trkpt>
      <trkpt lat="43.6671" lon="6.14399">
        <ele>576</ele>
      </trkpt>
      <trkpt lat="43.66707" lon="6.14392">
        <ele>576</ele>
        <time>2024-11-27T15:11:51Z</time>
      </trkpt>
      <trkpt lat="43.66702" lon="6.14388">
        <ele>576</ele>
        <time>2024-11-27T15:12:00Z</time>
      </trkpt>
      <trkpt lat="43.66695" lon="6.1438">
        <ele>575.7</ele>
        <time>2024-11-27T15:12:12Z</time>
      </trkpt>
      <trkpt lat="43.66687" lon="6.14375">
        <ele>575.2</ele>
      </trkpt>
      <trkpt lat="43.66679" lon="6.1437">
        <ele>574.8</ele>
      </trkpt>
      <trkpt lat="43.66671" lon="6.14364">
        <ele>574.3</ele>
      </trkpt>
      <trkpt lat="43.66663" lon="6.14359">
        <ele>573.7</ele>
        <time>2024-11-27T15:12:25Z</time>
      </trkpt>
      <trkpt lat="43.66657" lon="6.14353">
        <ele>573.2</ele>
      </trkpt>
      <trkpt lat="43.6665" lon="6.14347">
        <ele>572.7</ele>
        <time>2024-11-27T15:12:33Z</time>
      </trkpt>
      <trkpt lat="43.66645" lon="6.14341">
        <ele>572.3</ele>
      </trkpt>
      <trkpt lat="43.6664" lon="6.14334">
        <ele>572</ele>
        <time>2024-11-27T15:12:44Z</time>
      </trkpt>
      <trkpt lat="43.66635" lon="6.14326">
        <ele>571.1</ele>
      </trkpt>
      <trkpt lat="43.6663" lon="6.14318">
        <ele>570</ele>
        <time>2024-11-27T15:12:55Z</time>
      </trkpt>
      <trkpt lat="43.66628" lon="6.1431">
        <ele>569.1</ele>
      </trkpt>
      <trkpt lat="43.66625" lon="6.14302">
        <ele>568.6</ele>
        <time>2024-11-27T15:13:06Z</time>
      </trkpt>
      <trkpt lat="43.66619" lon="6.14295">
        <ele>568.4</ele>
      </trkpt>
      <trkpt lat="43.66613" lon="6.14288">
        <ele>568.1</ele>
        <time>2024-11-27T15:13:17Z</time>
      </trkpt>
      <trkpt lat="43.66609" lon="6.14282">
        <ele>567.9</ele>
      </trkpt>
      <trkpt lat="43.66605" lon="6.14277">
        <ele>567.8</ele>
        <time>2024-11-27T15:13:26Z</time>
      </trkpt>
      <trkpt lat="43.66602" lon="6.14272">
        <ele>568</ele>
      </trkpt>
      <trkpt lat="43.66598" lon="6.14267">
        <ele>568.1</ele>
        <time>2024-11-27T15:13:34Z</time>
      </trkpt>
      <trkpt lat="43.66595" lon="6.14261">
        <ele>568.3</ele>
      </trkpt>
      <trkpt lat="43.66592" lon="6.14255">
        <ele>568.4</ele>
        <time>2024-11-27T15:13:42Z</time>
      </trkpt>
      <trkpt lat="43.6659" lon="6.1425">
        <ele>568.5</ele>
      </trkpt>
      <trkpt lat="43.66587" lon="6.14244">
        <ele>568.5</ele>
        <time>2024-11-27T15:13:50Z</time>
      </trkpt>
      <trkpt lat="43.66585" lon="6.14236">
        <ele>568.6</ele>
      </trkpt>
      <trkpt lat="43.66582" lon="6.14227">
        <ele>568.8</ele>
        <time>2024-11-27T15:13:58Z</time>
      </trkpt>
      <trkpt lat="43.6658" lon="6.14221">
        <ele>568.9</ele>
      </trkpt>
      <trkpt lat="43.66578" lon="6.14214">
        <ele>568.9</ele>
        <time>2024-11-27T15:14:06Z</time>
      </trkpt>
      <trkpt lat="43.66576" lon="6.14209">
        <ele>568.9</ele>
      </trkpt>
      <trkpt lat="43.66574" lon="6.14203">
        <ele>568.9</ele>
        <time>2024-11-27T15:14:14Z</time>
      </trkpt>
      <trkpt lat="43.6657" lon="6.14194">
        <ele>569</ele>
      </trkpt>
      <trkpt lat="43.66567" lon="6.14184">
        <ele>568.8</ele>
        <time>2024-11-27T15:14:25Z</time>
      </trkpt>
      <trkpt lat="43.66565" lon="6.14173">
        <ele>568.5</ele>
        <time>2024-11-27T15:14:33Z</time>
      </trkpt>
      <trkpt lat="43.66564" lon="6.14166">
        <ele>568.3</ele>
      </trkpt>
      <trkpt lat="43.66562" lon="6.14159">
        <ele>568.2</ele>
        <time>2024-11-27T15:14:43Z</time>
      </trkpt>
      <trkpt lat="43.66562" lon="6.14151">
        <ele>568.2</ele>
      </trkpt>
      <trkpt lat="43.66562" lon="6.14143">
        <ele>568.2</ele>
        <time>2024-11-27T15:14:55Z</time>
      </trkpt>
      <trkpt lat="43.66561" lon="6.14133">
        <ele>568</ele>
      </trkpt>
      <trkpt lat="43.6656" lon="6.14123">
        <ele>567.6</ele>
        <time>2024-11-27T15:15:10Z</time>
      </trkpt>
      <trkpt lat="43.66561" lon="6.14115">
        <ele>567.3</ele>
      </trkpt>
      <trkpt lat="43.66563" lon="6.14106">
        <ele>567.3</ele>
        <time>2024-11-27T15:15:24Z</time>
      </trkpt>
      <trkpt lat="43.66565" lon="6.141">
        <ele>567.3</ele>
      </trkpt>
      <trkpt lat="43.66567" lon="6.14093">
        <ele>567.4</ele>
        <time>2024-11-27T15:15:33Z</time>
      </trkpt>
      <trkpt lat="43.6657" lon="6.14087">
        <ele>567.5</ele>
      </trkpt>
      <trkpt lat="43.66572" lon="6.1408">
        <ele>567.6</ele>
        <time>2024-11-27T15:15:42Z</time>
      </trkpt>
      <trkpt lat="43.66575" lon="6.14073">
        <ele>567.7</ele>
      </trkpt>
      <trkpt lat="43.66578" lon="6.14066">
        <ele>567.8</ele>
        <time>2024-11-27T15:15:51Z</time>
      </trkpt>
      <trkpt lat="43.6658" lon="6.14058">
        <ele>567.9</ele>
      </trkpt>
      <trkpt lat="43.66583" lon="6.1405">
        <ele>568</ele>
        <time>2024-11-27T15:16:01Z</time>
      </trkpt>
      <trkpt lat="43.66587" lon="6.14042">
        <ele>568.1</ele>
      </trkpt>
      <trkpt lat="43.66591" lon="6.14035">
        <ele>568.3</ele>
        <time>2024-11-27T15:16:12Z</time>
      </trkpt>
      <trkpt lat="43.66593" lon="6.14028">
        <ele>568.3</ele>
      </trkpt>
      <trkpt lat="43.66596" lon="6.1402">
        <ele>568.2</ele>
        <time>2024-11-27T15:16:22Z</time>
      </trkpt>
      <trkpt lat="43.66598" lon="6.1401">
        <ele>567.9</ele>
      </trkpt>
      <trkpt lat="43.666" lon="6.14001">
        <ele>567.7</ele>
        <time>2024-11-27T15:16:32Z</time>
      </trkpt>
      <trkpt lat="43.66604" lon="6.13994">
        <ele>567.7</ele>
      </trkpt>
      <trkpt lat="43.66608" lon="6.13986">
        <ele>567.9</ele>
        <time>2024-11-27T15:16:42Z</time>
      </trkpt>
      <trkpt lat="43.6661" lon="6.13979">
        <ele>568</ele>
      </trkpt>
      <trkpt lat="43.66612" lon="6.13972">
        <ele>568</ele>
        <time>2024-11-27T15:16:50Z</time>
      </trkpt>
      <trkpt lat="43.66614" lon="6.13966">
        <ele>568.1</ele>
      </trkpt>
      <trkpt lat="43.66616" lon="6.1396">
        <ele>568.2</ele>
        <time>2024-11-27T15:16:57Z</time>
      </trkpt>
      <trkpt lat="43.66618" lon="6.13954">
        <ele>568.3</ele>
      </trkpt>
      <trkpt lat="43.66621" lon="6.13948">
        <ele>568.4</ele>
        <time>2024-11-27T15:17:05Z</time>
      </trkpt>
      <trkpt lat="43.66624" lon="6.13941">
        <ele>568.3</ele>
      </trkpt>
      <trkpt lat="43.66626" lon="6.13934">
        <ele>568.2</ele>
        <time>2024-11-27T15:17:13Z</time>
      </trkpt>
      <trkpt lat="43.66629" lon="6.13929">
        <ele>568.1</ele>
      </trkpt>
      <trkpt lat="43.66632" lon="6.13923">
        <ele>568</ele>
        <time>2024-11-27T15:17:21Z</time>
      </trkpt>
      <trkpt lat="43.66635" lon="6.13916">
        <ele>567.9</ele>
      </trkpt>
      <trkpt lat="43.66638" lon="6.1391">
        <ele>568</ele>
        <time>2024-11-27T15:17:29Z</time>
      </trkpt>
      <trkpt lat="43.6664" lon="6.13904">
        <ele>568.1</ele>
      </trkpt>
      <trkpt lat="43.66643" lon="6.13899">
        <ele>568.2</ele>
        <time>2024-11-27T15:17:36Z</time>
      </trkpt>
      <trkpt lat="43.66646" lon="6.13893">
        <ele>568.3</ele>
      </trkpt>
      <trkpt lat="43.66648" lon="6.13887">
        <ele>568.3</ele>
        <time>2024-11-27T15:17:44Z</time>
      </trkpt>
      <trkpt lat="43.66651" lon="6.13882">
        <ele>568.4</ele>
      </trkpt>
      <trkpt lat="43.66654" lon="6.13876">
        <ele>568.5</ele>
        <time>2024-11-27T15:17:51Z</time>
      </trkpt>
      <trkpt lat="43.66658" lon="6.13868">
        <ele>568.7</ele>
        <time>2024-11-27T15:18:00Z</time>
      </trkpt>
      <trkpt lat="43.6666" lon="6.13862">
        <ele>568.8</ele>
      </trkpt>
      <trkpt lat="43.66661" lon="6.13856">
        <ele>568.8</ele>
        <time>2024-11-27T15:18:14Z</time>
      </trkpt>
      <trkpt lat="43.66664" lon="6.1385">
        <ele>568.9</ele>
      </trkpt>
      <trkpt lat="43.66666" lon="6.13843">
        <ele>569</ele>
        <time>2024-11-27T15:18:23Z</time>
      </trkpt>
      <trkpt lat="43.66668" lon="6.13837">
        <ele>569.1</ele>
      </trkpt>
      <trkpt lat="43.6667" lon="6.13831">
        <ele>569.1</ele>
        <time>2024-11-27T15:18:31Z</time>
      </trkpt>
      <trkpt lat="43.66673" lon="6.13824">
        <ele>569.2</ele>
      </trkpt>
      <trkpt lat="43.66676" lon="6.13816">
        <ele>569.3</ele>
        <time>2024-11-27T15:18:40Z</time>
      </trkpt>
      <trkpt lat="43.66679" lon="6.13811">
        <ele>569.4</ele>
      </trkpt>
      <trkpt lat="43.66682" lon="6.13805">
        <ele>569.5</ele>
        <time>2024-11-27T15:18:48Z</time>
      </trkpt>
      <trkpt lat="43.66684" lon="6.13799">
        <ele>569.6</ele>
      </trkpt>
      <trkpt lat="43.66687" lon="6.13793">
        <ele>569.7</ele>
        <time>2024-11-27T15:18:56Z</time>
      </trkpt>
      <trkpt lat="43.66688" lon="6.13787">
        <ele>569.8</ele>
      </trkpt>
      <trkpt lat="43.6669" lon="6.1378">
        <ele>569.8</ele>
        <time>2024-11-27T15:19:04Z</time>
      </trkpt>
      <trkpt lat="43.66692" lon="6.13773">
        <ele>569.9</ele>
      </trkpt>
      <trkpt lat="43.66695" lon="6.13766">
        <ele>570</ele>
        <time>2024-11-27T15:19:12Z</time>
      </trkpt>
      <trkpt lat="43.66697" lon="6.13761">
        <ele>570.2</ele>
      </trkpt>
      <trkpt lat="43.66699" lon="6.13755">
        <ele>570.3</ele>
        <time>2024-11-27T15:19:20Z</time>
      </trkpt>
      <trkpt lat="43.66702" lon="6.1375">
        <ele>570.6</ele>
      </trkpt>
      <trkpt lat="43.66706" lon="6.13746">
        <ele>570.8</ele>
        <time>2024-11-27T15:19:29Z</time>
      </trkpt>
      <trkpt lat="43.66709" lon="6.13739">
        <ele>571.1</ele>
      </trkpt>
      <trkpt lat="43.66713" lon="6.13732">
        <ele>571.3</ele>
        <time>2024-11-27T15:19:38Z</time>
      </trkpt>
      <trkpt lat="43.66715" lon="6.13725">
        <ele>571.5</ele>
      </trkpt>
      <trkpt lat="43.66717" lon="6.13717">
        <ele>571.7</ele>
        <time>2024-11-27T15:19:47Z</time>
      </trkpt>
      <trkpt lat="43.66719" lon="6.13711">
        <ele>571.8</ele>
      </trkpt>
      <trkpt lat="43.66721" lon="6.13704">
        <ele>571.9</ele>
        <time>2024-11-27T15:19:55Z</time>
      </trkpt>
      <trkpt lat="43.66723" lon="6.13698">
        <ele>572</ele>
      </trkpt>
      <trkpt lat="43.66726" lon="6.13691">
        <ele>572.1</ele>
        <time>2024-11-27T15:20:03Z</time>
      </trkpt>
      <trkpt lat="43.66728" lon="6.13685">
        <ele>572.2</ele>
      </trkpt>
      <trkpt lat="43.66731" lon="6.13679">
        <ele>572.3</ele>
        <time>2024-11-27T15:20:12Z</time>
      </trkpt>
      <trkpt lat="43.66733" lon="6.13672">
        <ele>572.4</ele>
      </trkpt>
      <trkpt lat="43.66735" lon="6.13665">
        <ele>572.5</ele>
        <time>2024-11-27T15:20:21Z</time>
      </trkpt>
      <trkpt lat="43.66737" lon="6.13658">
        <ele>572.7</ele>
      </trkpt>
      <trkpt lat="43.66739" lon="6.1365">
        <ele>572.8</ele>
        <time>2024-11-27T15:20:29Z</time>
      </trkpt>
      <trkpt lat="43.6674" lon="6.13643">
        <ele>572.9</ele>
      </trkpt>
      <trkpt lat="43.66742" lon="6.13635">
        <ele>573.1</ele>
        <time>2024-11-27T15:20:38Z</time>
      </trkpt>
      <trkpt lat="43.66744" lon="6.13629">
        <ele>573.4</ele>
      </trkpt>
      <trkpt lat="43.66746" lon="6.13622">
        <ele>573.6</ele>
        <time>2024-11-27T15:20:49Z</time>
      </trkpt>
      <trkpt lat="43.66748" lon="6.13612">
        <ele>574</ele>
      </trkpt>
      <trkpt lat="43.66751" lon="6.13602">
        <ele>574</ele>
        <time>2024-11-27T15:21:02Z</time>
      </trkpt>
      <trkpt lat="43.66753" lon="6.13591">
        <ele>574.1</ele>
      </trkpt>
      <trkpt lat="43.66754" lon="6.13581">
        <ele>574.2</ele>
        <time>2024-11-27T15:21:14Z</time>
      </trkpt>
      <trkpt lat="43.66756" lon="6.13572">
        <ele>574.6</ele>
      </trkpt>
      <trkpt lat="43.66758" lon="6.13563">
        <ele>574.8</ele>
        <time>2024-11-27T15:21:26Z</time>
      </trkpt>
      <trkpt lat="43.6676" lon="6.13552">
        <ele>575.1</ele>
      </trkpt>
      <trkpt lat="43.66762" lon="6.13542">
        <ele>575.5</ele>
        <time>2024-11-27T15:21:38Z</time>
      </trkpt>
      <trkpt lat="43.66765" lon="6.13532">
        <ele>575.8</ele>
      </trkpt>
      <trkpt lat="43.66767" lon="6.13523">
        <ele>576.1</ele>
        <time>2024-11-27T15:21:48Z</time>
      </trkpt>
      <trkpt lat="43.66768" lon="6.13514">
        <ele>576.2</ele>
      </trkpt>
      <trkpt lat="43.66769" lon="6.13504">
        <ele>576.3</ele>
        <time>2024-11-27T15:21:57Z</time>
      </trkpt>
      <trkpt lat="43.6677" lon="6.13497">
        <ele>576.4</ele>
      </trkpt>
      <trkpt lat="43.66772" lon="6.13491">
        <ele>576.6</ele>
        <time>2024-11-27T15:22:05Z</time>
      </trkpt>
      <trkpt lat="43.66772" lon="6.13483">
        <ele>576.9</ele>
      </trkpt>
      <trkpt lat="43.66772" lon="6.13475">
        <ele>577.3</ele>
        <time>2024-11-27T15:22:14Z</time>
      </trkpt>
      <trkpt lat="43.66776" lon="6.13465">
        <ele>577.7</ele>
        <time>2024-11-27T15:22:40Z</time>
      </trkpt>
      <trkpt lat="43.66781" lon="6.1346">
        <ele>577.8</ele>
        <time>2024-11-27T15:22:59Z</time>
      </trkpt>
      <trkpt lat="43.66779" lon="6.13463">
        <ele>577.6</ele>
        <time>2024-11-27T15:23:21Z</time>
      </trkpt>
      <trkpt lat="43.6678" lon="6.13457">
        <ele>578</ele>
      </trkpt>
      <trkpt lat="43.66781" lon="6.1345">
        <ele>578.4</ele>
        <time>2024-11-27T15:23:35Z</time>
      </trkpt>
      <trkpt lat="43.66782" lon="6.13443">
        <ele>578.7</ele>
      </trkpt>
      <trkpt lat="43.66784" lon="6.13436">
        <ele>578.9</ele>
        <time>2024-11-27T15:23:45Z</time>
      </trkpt>
      <trkpt lat="43.66786" lon="6.13429">
        <ele>579.2</ele>
      </trkpt>
      <trkpt lat="43.66787" lon="6.13421">
        <ele>579.5</ele>
        <time>2024-11-27T15:23:54Z</time>
      </trkpt>
      <trkpt lat="43.6679" lon="6.1341">
        <ele>579.8</ele>
        <time>2024-11-27T15:24:03Z</time>
      </trkpt>
      <trkpt lat="43.66792" lon="6.13401">
        <ele>580.1</ele>
      </trkpt>
      <trkpt lat="43.66794" lon="6.13392">
        <ele>580.3</ele>
        <time>2024-11-27T15:24:13Z</time>
      </trkpt>
      <trkpt lat="43.66796" lon="6.13383">
        <ele>580.5</ele>
      </trkpt>
      <trkpt lat="43.66798" lon="6.13375">
        <ele>580.6</ele>
        <time>2024-11-27T15:24:22Z</time>
      </trkpt>
      <trkpt lat="43.66799" lon="6.13367">
        <ele>580.8</ele>
      </trkpt>
      <trkpt lat="43.66801" lon="6.1336">
        <ele>581</ele>
        <time>2024-11-27T15:24:31Z</time>
      </trkpt>
      <trkpt lat="43.66802" lon="6.13352">
        <ele>581</ele>
      </trkpt>
      <trkpt lat="43.66803" lon="6.13344">
        <ele>581.1</ele>
        <time>2024-11-27T15:24:40Z</time>
      </trkpt>
      <trkpt lat="43.66805" lon="6.13336">
        <ele>581</ele>
      </trkpt>
      <trkpt lat="43.66806" lon="6.13329">
        <ele>581.2</ele>
        <time>2024-11-27T15:24:49Z</time>
      </trkpt>
      <trkpt lat="43.66807" lon="6.13322">
        <ele>581.4</ele>
      </trkpt>
      <trkpt lat="43.66808" lon="6.13316">
        <ele>581.6</ele>
        <time>2024-11-27T15:24:58Z</time>
      </trkpt>
      <trkpt lat="43.66812" lon="6.13306">
        <ele>581.8</ele>
        <time>2024-11-27T15:25:07Z</time>
      </trkpt>
      <trkpt lat="43.66814" lon="6.13298">
        <ele>581.7</ele>
      </trkpt>
      <trkpt lat="43.66816" lon="6.13291">
        <ele>581.6</ele>
        <time>2024-11-27T15:25:17Z</time>
      </trkpt>
      <trkpt lat="43.66817" lon="6.13284">
        <ele>581.6</ele>
      </trkpt>
      <trkpt lat="43.66819" lon="6.13277">
        <ele>581.5</ele>
        <time>2024-11-27T15:25:26Z</time>
      </trkpt>
      <trkpt lat="43.66821" lon="6.1327">
        <ele>581.7</ele>
      </trkpt>
      <trkpt lat="43.66823" lon="6.13263">
        <ele>581.9</ele>
        <time>2024-11-27T15:25:36Z</time>
      </trkpt>
      <trkpt lat="43.66824" lon="6.13255">
        <ele>582.1</ele>
      </trkpt>
      <trkpt lat="43.66826" lon="6.13247">
        <ele>582.3</ele>
        <time>2024-11-27T15:25:45Z</time>
      </trkpt>
      <trkpt lat="43.66828" lon="6.1324">
        <ele>582.3</ele>
      </trkpt>
      <trkpt lat="43.66829" lon="6.13232">
        <ele>582.2</ele>
        <time>2024-11-27T15:25:54Z</time>
      </trkpt>
      <trkpt lat="43.66831" lon="6.13225">
        <ele>582.2</ele>
      </trkpt>
      <trkpt lat="43.66832" lon="6.13218">
        <ele>582.3</ele>
        <time>2024-11-27T15:26:04Z</time>
      </trkpt>
      <trkpt lat="43.66834" lon="6.13211">
        <ele>582.4</ele>
      </trkpt>
      <trkpt lat="43.66835" lon="6.13204">
        <ele>582.6</ele>
        <time>2024-11-27T15:26:13Z</time>
      </trkpt>
      <trkpt lat="43.66836" lon="6.13197">
        <ele>582.7</ele>
      </trkpt>
      <trkpt lat="43.66838" lon="6.1319">
        <ele>582.7</ele>
        <time>2024-11-27T15:26:22Z</time>
      </trkpt>
      <trkpt lat="43.6684" lon="6.13183">
        <ele>582.6</ele>
      </trkpt>
      <trkpt lat="43.66842" lon="6.13176">
        <ele>582.6</ele>
        <time>2024-11-27T15:26:31Z</time>
      </trkpt>
      <trkpt lat="43.66844" lon="6.13169">
        <ele>582.6</ele>
      </trkpt>
      <trkpt lat="43.66846" lon="6.13163">
        <ele>582.6</ele>
        <time>2024-11-27T15:26:40Z</time>
      </trkpt>
      <trkpt lat="43.66847" lon="6.13156">
        <ele>582.5</ele>
      </trkpt>
      <trkpt lat="43.66848" lon="6.13149">
        <ele>582.5</ele>
        <time>2024-11-27T15:26:49Z</time>
      </trkpt>
      <trkpt lat="43.66849" lon="6.13142">
        <ele>582.4</ele>
      </trkpt>
      <trkpt lat="43.66851" lon="6.13136">
        <ele>582.4</ele>
        <time>2024-11-27T15:26:58Z</time>
      </trkpt>
      <trkpt lat="43.66853" lon="6.13128">
        <ele>582.3</ele>
      </trkpt>
      <trkpt lat="43.66854" lon="6.13121">
        <ele>582.2</ele>
        <time>2024-11-27T15:27:07Z</time>
      </trkpt>
      <trkpt lat="43.66855" lon="6.13112">
        <ele>582.2</ele>
      </trkpt>
      <trkpt lat="43.66856" lon="6.13104">
        <ele>582.2</ele>
        <time>2024-11-27T15:27:16Z</time>
      </trkpt>
      <trkpt lat="43.66856" lon="6.13097">
        <ele>582.2</ele>
      </trkpt>
      <trkpt lat="43.66856" lon="6.1309">
        <ele>582.2</ele>
        <time>2024-11-27T15:27:25Z</time>
      </trkpt>
      <trkpt lat="43.6685" lon="6.1304">
        <ele>583.1</ele>
      </trkpt>
      <trkpt lat="43.66844" lon="6.13036">
        <ele>583.5</ele>
        <time>2024-11-27T15:28:58Z</time>
      </trkpt>
      <trkpt lat="43.66839" lon="6.13032">
        <ele>583.8</ele>
      </trkpt>
      <trkpt lat="43.66833" lon="6.13028">
        <ele>584</ele>
        <time>2024-11-27T15:29:10Z</time>
      </trkpt>
      <trkpt lat="43.66827" lon="6.13024">
        <ele>584.4</ele>
      </trkpt>
      <trkpt lat="43.66822" lon="6.13019">
        <ele>584.7</ele>
        <time>2024-11-27T15:29:21Z</time>
      </trkpt>
      <trkpt lat="43.66817" lon="6.13015">
        <ele>585.1</ele>
      </trkpt>
      <trkpt lat="43.66812" lon="6.1301">
        <ele>585.4</ele>
        <time>2024-11-27T15:29:32Z</time>
      </trkpt>
      <trkpt lat="43.66806" lon="6.13007">
        <ele>585.7</ele>
      </trkpt>
      <trkpt lat="43.66801" lon="6.13003">
        <ele>586.2</ele>
        <time>2024-11-27T15:29:43Z</time>
      </trkpt>
      <trkpt lat="43.66796" lon="6.12999">
        <ele>586.7</ele>
      </trkpt>
      <trkpt lat="43.66791" lon="6.12995">
        <ele>587.2</ele>
        <time>2024-11-27T15:29:54Z</time>
      </trkpt>
      <trkpt lat="43.66786" lon="6.12993">
        <ele>587.7</ele>
      </trkpt>
      <trkpt lat="43.66781" lon="6.12991">
        <ele>588.1</ele>
        <time>2024-11-27T15:30:04Z</time>
      </trkpt>
      <trkpt lat="43.66775" lon="6.12988">
        <ele>588.5</ele>
      </trkpt>
      <trkpt lat="43.6677" lon="6.12985">
        <ele>588.8</ele>
        <time>2024-11-27T15:30:14Z</time>
      </trkpt>
      <trkpt lat="43.66765" lon="6.12981">
        <ele>589.1</ele>
      </trkpt>
      <trkpt lat="43.6676" lon="6.12978">
        <ele>589.4</ele>
        <time>2024-11-27T15:30:23Z</time>
      </trkpt>
      <trkpt lat="43.66757" lon="6.12974">
        <ele>589.7</ele>
      </trkpt>
      <trkpt lat="43.66753" lon="6.12971">
        <ele>589.9</ele>
        <time>2024-11-27T15:30:33Z</time>
      </trkpt>
      <trkpt lat="43.66748" lon="6.12968">
        <ele>590.3</ele>
      </trkpt>
      <trkpt lat="43.66744" lon="6.12964">
        <ele>590.8</ele>
        <time>2024-11-27T15:30:43Z</time>
      </trkpt>
      <trkpt lat="43.66739" lon="6.12961">
        <ele>591.2</ele>
      </trkpt>
      <trkpt lat="43.66735" lon="6.12958">
        <ele>591.6</ele>
        <time>2024-11-27T15:30:52Z</time>
      </trkpt>
      <trkpt lat="43.66731" lon="6.12956">
        <ele>592</ele>
      </trkpt>
      <trkpt lat="43.66726" lon="6.12953">
        <ele>592.4</ele>
        <time>2024-11-27T15:31:01Z</time>
      </trkpt>
      <trkpt lat="43.66722" lon="6.1295">
        <ele>592.8</ele>
      </trkpt>
      <trkpt lat="43.66718" lon="6.12947">
        <ele>593.3</ele>
        <time>2024-11-27T15:31:10Z</time>
      </trkpt>
      <trkpt lat="43.66713" lon="6.12944">
        <ele>593.7</ele>
      </trkpt>
      <trkpt lat="43.66709" lon="6.12941">
        <ele>594</ele>
        <time>2024-11-27T15:31:18Z</time>
      </trkpt>
      <trkpt lat="43.66704" lon="6.12937">
        <ele>594.4</ele>
      </trkpt>
      <trkpt lat="43.667" lon="6.12933">
        <ele>594.7</ele>
        <time>2024-11-27T15:31:27Z</time>
      </trkpt>
      <trkpt lat="43.66697" lon="6.12929">
        <ele>594.9</ele>
      </trkpt>
      <trkpt lat="43.66693" lon="6.12924">
        <ele>595.1</ele>
        <time>2024-11-27T15:31:35Z</time>
      </trkpt>
      <trkpt lat="43.66689" lon="6.12918">
        <ele>595.4</ele>
      </trkpt>
      <trkpt lat="43.66685" lon="6.12913">
        <ele>595.8</ele>
        <time>2024-11-27T15:31:44Z</time>
      </trkpt>
      <trkpt lat="43.66683" lon="6.12907">
        <ele>596.2</ele>
      </trkpt>
      <trkpt lat="43.6668" lon="6.12902">
        <ele>596.6</ele>
        <time>2024-11-27T15:31:52Z</time>
      </trkpt>
      <trkpt lat="43.66677" lon="6.12897">
        <ele>597</ele>
      </trkpt>
      <trkpt lat="43.66673" lon="6.12892">
        <ele>597.4</ele>
        <time>2024-11-27T15:32:01Z</time>
      </trkpt>
      <trkpt lat="43.6667" lon="6.12887">
        <ele>597.8</ele>
      </trkpt>
      <trkpt lat="43.66667" lon="6.12882">
        <ele>598.2</ele>
        <time>2024-11-27T15:32:10Z</time>
      </trkpt>
      <trkpt lat="43.66665" lon="6.12877">
        <ele>598.5</ele>
      </trkpt>
      <trkpt lat="43.66662" lon="6.12872">
        <ele>598.9</ele>
        <time>2024-11-27T15:32:20Z</time>
      </trkpt>
      <trkpt lat="43.66658" lon="6.12867">
        <ele>599.3</ele>
      </trkpt>
      <trkpt lat="43.66655" lon="6.12861">
        <ele>599.8</ele>
        <time>2024-11-27T15:32:29Z</time>
      </trkpt>
      <trkpt lat="43.66652" lon="6.12856">
        <ele>600.1</ele>
      </trkpt>
      <trkpt lat="43.66649" lon="6.12851">
        <ele>600.4</ele>
        <time>2024-11-27T15:32:39Z</time>
      </trkpt>
      <trkpt lat="43.66646" lon="6.12846">
        <ele>600.6</ele>
      </trkpt>
      <trkpt lat="43.66643" lon="6.12841">
        <ele>600.8</ele>
        <time>2024-11-27T15:32:49Z</time>
      </trkpt>
      <trkpt lat="43.6664" lon="6.12836">
        <ele>600.9</ele>
      </trkpt>
      <trkpt lat="43.66638" lon="6.1283">
        <ele>601.1</ele>
        <time>2024-11-27T15:32:59Z</time>
      </trkpt>
      <trkpt lat="43.66634" lon="6.12822">
        <ele>601.4</ele>
      </trkpt>
      <trkpt lat="43.66631" lon="6.12815">
        <ele>601.7</ele>
        <time>2024-11-27T15:33:10Z</time>
      </trkpt>
      <trkpt lat="43.66629" lon="6.12809">
        <ele>601.9</ele>
      </trkpt>
      <trkpt lat="43.66627" lon="6.12803">
        <ele>602.1</ele>
        <time>2024-11-27T15:33:29Z</time>
      </trkpt>
      <trkpt lat="43.66631" lon="6.12796">
        <ele>602.3</ele>
      </trkpt>
      <trkpt lat="43.66635" lon="6.12789">
        <ele>602.6</ele>
        <time>2024-11-27T15:33:40Z</time>
      </trkpt>
      <trkpt lat="43.66638" lon="6.12783">
        <ele>602.8</ele>
      </trkpt>
      <trkpt lat="43.66642" lon="6.12778">
        <ele>602.9</ele>
        <time>2024-11-27T15:33:50Z</time>
      </trkpt>
      <trkpt lat="43.66645" lon="6.12772">
        <ele>602.8</ele>
      </trkpt>
      <trkpt lat="43.66648" lon="6.12766">
        <ele>602.8</ele>
        <time>2024-11-27T15:33:59Z</time>
      </trkpt>
      <trkpt lat="43.66651" lon="6.12759">
        <ele>602.9</ele>
      </trkpt>
      <trkpt lat="43.66654" lon="6.12753">
        <ele>602.9</ele>
        <time>2024-11-27T15:34:08Z</time>
      </trkpt>
      <trkpt lat="43.66658" lon="6.12748">
        <ele>603</ele>
      </trkpt>
      <trkpt lat="43.66662" lon="6.12743">
        <ele>603</ele>
        <time>2024-11-27T15:34:17Z</time>
      </trkpt>
      <trkpt lat="43.66665" lon="6.12738">
        <ele>603</ele>
      </trkpt>
      <trkpt lat="43.66668" lon="6.12733">
        <ele>602.9</ele>
        <time>2024-11-27T15:34:26Z</time>
      </trkpt>
      <trkpt lat="43.66668" lon="6.12727">
        <ele>602.9</ele>
      </trkpt>
      <trkpt lat="43.66669" lon="6.1272">
        <ele>602.9</ele>
        <time>2024-11-27T15:34:36Z</time>
      </trkpt>
      <trkpt lat="43.66667" lon="6.12711">
        <ele>602.6</ele>
      </trkpt>
      <trkpt lat="43.66666" lon="6.12701">
        <ele>602.3</ele>
        <time>2024-11-27T15:34:49Z</time>
      </trkpt>
      <trkpt lat="43.66663" lon="6.12694">
        <ele>602.1</ele>
      </trkpt>
      <trkpt lat="43.66661" lon="6.12687">
        <ele>602.2</ele>
        <time>2024-11-27T15:34:58Z</time>
      </trkpt>
      <trkpt lat="43.66658" lon="6.1268">
        <ele>602.3</ele>
      </trkpt>
      <trkpt lat="43.66656" lon="6.12673">
        <ele>602.4</ele>
        <time>2024-11-27T15:35:08Z</time>
      </trkpt>
      <trkpt lat="43.66653" lon="6.12666">
        <ele>602.5</ele>
      </trkpt>
      <trkpt lat="43.66651" lon="6.12659">
        <ele>602.4</ele>
        <time>2024-11-27T15:35:18Z</time>
      </trkpt>
      <trkpt lat="43.66646" lon="6.12655">
        <ele>602.4</ele>
      </trkpt>
      <trkpt lat="43.66641" lon="6.1265">
        <ele>602.4</ele>
        <time>2024-11-27T15:35:27Z</time>
      </trkpt>
      <trkpt lat="43.66637" lon="6.12649">
        <ele>602.3</ele>
      </trkpt>
      <trkpt lat="43.66632" lon="6.12647">
        <ele>602.3</ele>
        <time>2024-11-27T15:35:36Z</time>
      </trkpt>
      <trkpt lat="43.66626" lon="6.12647">
        <ele>602.3</ele>
      </trkpt>
      <trkpt lat="43.66621" lon="6.12646">
        <ele>602.3</ele>
        <time>2024-11-27T15:35:47Z</time>
      </trkpt>
      <trkpt lat="43.66615" lon="6.12648">
        <ele>602.3</ele>
      </trkpt>
      <trkpt lat="43.6661" lon="6.12651">
        <ele>602.4</ele>
        <time>2024-11-27T15:35:58Z</time>
      </trkpt>
      <trkpt lat="43.66605" lon="6.12654">
        <ele>602.4</ele>
      </trkpt>
      <trkpt lat="43.666" lon="6.12658">
        <ele>602.4</ele>
        <time>2024-11-27T15:36:10Z</time>
      </trkpt>
      <trkpt lat="43.66594" lon="6.12664">
        <ele>602.3</ele>
      </trkpt>
      <trkpt lat="43.66588" lon="6.1267">
        <ele>602.3</ele>
        <time>2024-11-27T15:36:22Z</time>
      </trkpt>
      <trkpt lat="43.66586" lon="6.12677">
        <ele>602.4</ele>
      </trkpt>
      <trkpt lat="43.66583" lon="6.12684">
        <ele>602.6</ele>
        <time>2024-11-27T15:36:32Z</time>
      </trkpt>
      <trkpt lat="43.66581" lon="6.12691">
        <ele>602.9</ele>
      </trkpt>
      <trkpt lat="43.66579" lon="6.12698">
        <ele>603</ele>
        <time>2024-11-27T15:36:43Z</time>
      </trkpt>
      <trkpt lat="43.66575" lon="6.127">
        <ele>603</ele>
        <time>2024-11-27T15:37:34Z</time>
      </trkpt>
      <trkpt lat="43.66573" lon="6.12707">
        <ele>603</ele>
        <time>2024-11-27T15:38:27Z</time>
      </trkpt>
      <trkpt lat="43.66577" lon="6.12705">
        <ele>603</ele>
        <time>2024-11-27T15:43:55Z</time>
      </trkpt>
      <trkpt lat="43.66575" lon="6.12705">
        <ele>603</ele>
        <time>2024-11-27T15:46:04Z</time>
      </trkpt>
    </trkseg>
  </trk>
</gpx>